Data Archive--December, 2005

Date Time Heat Index Current Temp Wind Chill High Temp Low Temp Humidity Dew Point Wind Speed Gust Wind Direction Rain Barometer
12/01/2005 12:00 a 42.6 42.6 42.6 42.6 42.5 63 30.9 2.0 6.0 SSW 0.00 29.895
12/01/2005 12:10 a 42.5 42.5 42.5 42.6 42.5 63 30.8 2.0 6.0 SSW 0.00 29.892
12/01/2005 12:20 a 42.5 42.5 42.5 42.5 42.4 63 30.8 1.0 5.0 S 0.00 29.890
12/01/2005 12:30 a 42.4 42.4 42.4 42.5 42.3 62 30.3 1.0 4.0 S 0.00 29.894
12/01/2005 12:40 a 42.2 42.2 42.2 42.3 42.1 62 30.1 2.0 6.0 SSW 0.00 29.894
12/01/2005 12:50 a 42.1 42.1 42.1 42.1 42.0 62 30.0 2.0 5.0 S 0.00 29.888
12/01/2005 1:00 a 41.9 41.9 41.9 42.0 41.7 63 30.2 1.0 4.0 S 0.00 29.891
12/01/2005 1:10 a 41.5 41.5 41.5 41.7 41.3 64 30.2 1.0 3.0 SSW 0.00 29.892
12/01/2005 1:20 a 41.2 41.2 41.2 41.3 41.1 65 30.3 1.0 6.0 S 0.00 29.881
12/01/2005 1:30 a 41.0 41.0 41.0 41.1 40.8 65 30.2 2.0 5.0 S 0.00 29.884
12/01/2005 1:40 a 40.7 40.7 40.7 40.9 40.6 67 30.6 1.0 5.0 S 0.00 29.885
12/01/2005 1:50 a 40.4 40.4 40.4 40.6 40.3 67 30.3 1.0 5.0 SSE 0.00 29.888
12/01/2005 2:00 a 40.2 40.2 40.2 40.3 40.1 68 30.5 1.0 4.0 S 0.00 29.888
12/01/2005 2:10 a 39.9 39.9 39.9 40.1 39.8 69 30.6 0.0 2.0 SE 0.00 29.889
12/01/2005 2:20 a 39.7 39.7 39.7 39.8 39.6 70 30.7 0.0 3.0 SSW 0.00 29.891
12/01/2005 2:30 a 39.5 39.5 39.5 39.6 39.5 70 30.5 0.0 2.0 SSW 0.00 29.890
12/01/2005 2:40 a 39.4 39.4 39.4 39.5 39.4 70 30.4 0.0 3.0 SSW 0.00 29.884
12/01/2005 2:50 a 39.3 39.3 39.3 39.4 39.2 71 30.7 0.0 2.0 SSW 0.00 29.882
12/01/2005 3:00 a 39.1 39.1 39.1 39.2 39.1 71 30.5 0.0 3.0 SSW 0.00 29.883
12/01/2005 3:10 a 39.0 39.0 39.0 39.1 39.0 72 30.8 0.0 4.0 S 0.00 29.886
12/01/2005 3:20 a 38.9 38.9 38.9 39.0 38.8 72 30.7 0.0 2.0 S 0.00 29.884
12/01/2005 3:30 a 38.7 38.7 38.7 38.8 38.6 73 30.8 0.0 0.0 --- 0.00 29.883
12/01/2005 3:40 a 38.5 38.5 38.5 38.6 38.4 74 30.9 0.0 0.0 --- 0.00 29.877
12/01/2005 3:50 a 38.3 38.3 38.3 38.4 38.1 75 31.1 0.0 0.0 --- 0.00 29.876
12/01/2005 4:00 a 38.0 38.0 38.0 38.2 37.9 76 31.1 0.0 0.0 --- 0.00 29.872
12/01/2005 4:10 a 37.7 37.7 37.7 37.8 37.5 76 30.8 0.0 0.0 --- 0.00 29.868
12/01/2005 4:20 a 37.4 37.4 37.4 37.5 37.3 77 30.9 0.0 0.0 --- 0.00 29.868
12/01/2005 4:30 a 37.3 37.3 37.3 37.4 37.3 77 30.8 0.0 0.0 --- 0.00 29.865
12/01/2005 4:40 a 37.3 37.3 37.3 37.4 37.2 78 31.1 0.0 0.0 --- 0.00 29.867
12/01/2005 4:50 a 37.1 37.1 37.1 37.3 36.9 80 31.5 0.0 0.0 --- 0.00 29.871
12/01/2005 5:00 a 36.7 36.7 36.7 36.9 36.5 81 31.4 0.0 0.0 --- 0.00 29.871
12/01/2005 5:10 a 36.3 36.3 36.3 36.5 36.1 81 31.0 0.0 0.0 --- 0.00 29.870
12/01/2005 5:20 a 35.9 35.9 35.9 36.1 35.8 82 31.0 0.0 0.0 --- 0.00 29.871
12/01/2005 5:30 a 35.6 35.6 35.6 35.8 35.4 83 31.0 0.0 0.0 --- 0.00 29.870
12/01/2005 5:40 a 35.3 35.3 35.3 35.4 35.1 83 30.7 0.0 0.0 --- 0.00 29.869
12/01/2005 5:50 a 35.1 35.1 35.1 35.2 34.9 84 30.8 0.0 0.0 --- 0.00 29.870
12/01/2005 6:00 a 34.8 34.8 34.8 34.9 34.6 85 30.8 0.0 0.0 --- 0.00 29.870
12/01/2005 6:10 a 34.5 34.5 34.5 34.7 34.4 85 30.5 0.0 0.0 --- 0.00 29.869
12/01/2005 6:20 a 34.3 34.3 34.3 34.4 34.2 86 30.6 0.0 0.0 --- 0.00 29.873
12/01/2005 6:30 a 34.1 34.1 34.1 34.2 34.0 86 30.4 0.0 0.0 --- 0.00 29.875
12/01/2005 6:40 a 33.9 33.9 33.9 34.0 33.7 88 30.7 0.0 0.0 --- 0.00 29.872
12/01/2005 6:50 a 33.6 33.6 33.6 33.8 33.5 88 30.4 0.0 0.0 --- 0.00 29.874
12/01/2005 7:00 a 33.4 33.4 33.4 33.5 33.3 88 30.2 0.0 0.0 --- 0.00 29.870
12/01/2005 7:10 a 33.2 33.2 33.2 33.3 33.0 88 30.0 0.0 0.0 --- 0.00 29.868
12/01/2005 7:20 a 32.9 32.9 32.9 33.0 32.8 88 29.7 0.0 0.0 --- 0.00 29.869
12/01/2005 7:30 a 32.7 32.7 32.7 32.9 32.6 89 29.8 0.0 0.0 --- 0.00 29.866
12/01/2005 7:40 a 32.6 32.6 32.6 32.7 32.6 89 29.7 0.0 0.0 --- 0.00 29.866
12/01/2005 7:50 a 32.4 32.4 32.4 32.6 32.3 89 29.5 0.0 0.0 --- 0.00 29.866
12/01/2005 8:00 a 32.2 32.2 32.2 32.3 32.1 90 29.6 0.0 0.0 --- 0.00 29.863
12/01/2005 8:10 a 32.1 32.1 32.1 32.3 32.0 91 29.8 0.0 0.0 --- 0.00 29.862
12/01/2005 8:20 a 32.6 32.6 32.6 33.0 32.3 91 30.3 0.0 0.0 --- 0.00 29.860
12/01/2005 8:30 a 33.4 33.4 33.4 33.7 33.0 92 31.3 0.0 0.0 --- 0.00 29.855
12/01/2005 8:40 a 34.2 34.2 34.2 34.8 33.7 92 32.1 0.0 0.0 --- 0.00 29.848
12/01/2005 8:50 a 35.7 35.7 35.7 36.6 34.8 89 32.8 0.0 0.0 --- 0.00 29.846
12/01/2005 9:00 a 37.7 37.7 37.7 38.9 36.7 84 33.3 0.0 0.0 --- 0.00 29.847
12/01/2005 9:10 a 39.8 39.8 39.8 40.6 39.0 79 33.8 0.0 0.0 --- 0.00 29.845
12/01/2005 9:20 a 41.1 41.1 41.1 41.5 40.6 74 33.5 0.0 0.0 --- 0.00 29.843
12/01/2005 9:30 a 41.4 41.4 41.4 41.6 41.3 72 33.1 0.0 0.0 --- 0.00 29.846
12/01/2005 9:40 a 41.4 41.4 41.4 41.4 41.3 69 32.0 0.0 2.0 S 0.00 29.841
12/01/2005 9:50 a 41.3 41.3 41.3 41.4 41.3 69 31.9 1.0 4.0 SW 0.00 29.843
12/01/2005 10:00 a 41.5 41.5 41.5 41.6 41.4 66 31.0 1.0 4.0 SW 0.00 29.842
12/01/2005 10:10 a 41.7 41.7 41.7 41.7 41.6 65 30.8 1.0 6.0 SSW 0.00 29.834
12/01/2005 10:20 a 41.8 41.8 41.8 41.9 41.6 64 30.5 1.0 4.0 SSW 0.00 29.826
12/01/2005 10:30 a 42.0 42.0 42.0 42.1 41.9 64 30.7 1.0 3.0 W 0.00 29.831
12/01/2005 10:40 a 41.9 41.9 41.9 42.0 41.8 64 30.6 1.0 4.0 SE 0.00 29.829
12/01/2005 10:50 a 42.0 42.0 42.0 42.3 41.8 63 30.3 1.0 3.0 SE 0.00 29.820
12/01/2005 11:00 a 42.8 42.8 42.8 43.0 42.3 62 30.7 1.0 3.0 SSW 0.00 29.819
12/01/2005 11:10 a 42.6 42.6 42.6 43.0 42.5 62 30.5 1.0 4.0 SSE 0.00 29.815
12/01/2005 11:20 a 42.9 42.9 42.9 43.1 42.5 62 30.8 1.0 7.0 SSE 0.00 29.806
12/01/2005 11:30 a 43.0 43.0 43.0 43.2 42.9 61 30.5 1.0 4.0 SE 0.00 29.793
12/01/2005 11:40 a 42.9 42.9 42.9 43.0 42.9 61 30.4 1.0 4.0 SSE 0.00 29.783
12/01/2005 11:50 a 43.1 43.1 43.1 43.1 43.0 60 30.2 1.0 4.0 SSE 0.00 29.780
12/01/2005 12:00 p 43.4 43.4 43.4 43.7 43.1 60 30.5 1.0 5.0 SE 0.00 29.775
12/01/2005 12:10 p 44.1 44.1 44.1 44.4 43.7 58 30.3 1.0 7.0 SE 0.00 29.768
12/01/2005 12:20 p 44.7 44.7 44.7 45.0 44.4 57 30.4 2.0 5.0 SE 0.00 29.756
12/01/2005 12:30 p 44.8 44.8 44.8 44.9 44.6 57 30.5 0.0 2.0 SE 0.00 29.753
12/01/2005 12:40 p 44.3 44.3 44.3 44.6 44.1 57 30.0 1.0 3.0 SE 0.00 29.741
12/01/2005 12:50 p 44.2 44.2 44.2 44.3 44.1 58 30.4 0.0 2.0 SE 0.00 29.730
12/01/2005 1:00 p 44.5 44.5 44.5 44.5 44.3 57 30.2 1.0 4.0 SE 0.00 29.727
12/01/2005 1:10 p 44.6 44.6 44.6 44.7 44.5 57 30.3 0.0 2.0 SE 0.00 29.719
12/01/2005 1:20 p 45.0 45.0 45.0 45.3 44.7 55 29.8 1.0 4.0 SE 0.00 29.711
12/01/2005 1:30 p 45.2 45.2 45.2 45.3 45.2 55 30.0 0.0 2.0 SSW 0.00 29.707
12/01/2005 1:40 p 44.9 44.9 44.9 45.2 44.8 56 30.2 1.0 3.0 SSW 0.00 29.703
12/01/2005 1:50 p 45.0 45.0 45.0 45.1 44.8 55 29.8 0.0 2.0 SSW 0.00 29.695
12/01/2005 2:00 p 45.0 45.0 45.0 45.1 44.9 55 29.8 1.0 3.0 S 0.00 29.691
12/01/2005 2:10 p 44.8 44.8 44.8 44.9 44.8 57 30.5 0.0 3.0 S 0.00 29.686
12/01/2005 2:20 p 45.0 45.0 45.0 45.2 44.8 58 31.1 0.0 0.0 --- 0.00 29.685
12/01/2005 2:30 p 45.3 45.3 45.3 45.4 45.2 55 30.1 0.0 2.0 SSW 0.00 29.677
12/01/2005 2:40 p 45.4 45.4 45.4 45.4 45.3 55 30.2 0.0 0.0 --- 0.00 29.661
12/01/2005 2:50 p 45.2 45.2 45.2 45.3 45.2 56 30.5 0.0 1.0 SSW 0.00 29.649
12/01/2005 3:00 p 45.1 45.1 45.1 45.2 45.1 56 30.4 0.0 1.0 SSW 0.00 29.647
12/01/2005 3:10 p 45.1 45.1 45.1 45.2 44.9 56 30.4 0.0 3.0 NNW 0.00 29.647
12/01/2005 3:20 p 44.8 44.8 44.8 44.9 44.8 56 30.1 0.0 0.0 --- 0.00 29.644
12/01/2005 3:30 p 44.9 44.9 44.9 45.1 44.8 58 31.0 0.0 0.0 --- 0.00 29.641
12/01/2005 3:40 p 45.1 45.1 45.1 45.1 45.0 59 31.6 0.0 0.0 --- 0.00 29.639
12/01/2005 3:50 p 44.9 44.9 44.9 45.1 44.8 57 30.6 0.0 0.0 --- 0.00 29.639
12/01/2005 4:00 p 44.8 44.8 44.8 44.8 44.7 56 30.1 0.0 0.0 --- 0.00 29.629
12/01/2005 4:10 p 44.7 44.7 44.7 44.7 44.7 59 31.3 0.0 0.0 --- 0.00 29.636
12/01/2005 4:20 p 44.7 44.7 44.7 44.7 44.6 61 32.1 0.0 0.0 --- 0.00 29.635
12/01/2005 4:30 p 44.5 44.5 44.5 44.6 44.5 62 32.3 0.0 0.0 --- 0.00 29.644
12/01/2005 4:40 p 44.4 44.4 44.4 44.5 44.3 60 31.4 0.0 1.0 NNW 0.00 29.637
12/01/2005 4:50 p 44.2 44.2 44.2 44.3 44.1 62 32.0 0.0 0.0 --- 0.00 29.631
12/01/2005 5:00 p 44.0 44.0 44.0 44.1 43.8 62 31.8 0.0 0.0 --- 0.00 29.627
12/01/2005 5:10 p 43.7 43.7 43.7 43.9 43.5 65 32.7 0.0 0.0 --- 0.00 29.632
12/01/2005 5:20 p 43.4 43.4 43.4 43.5 43.2 64 32.1 0.0 0.0 --- 0.00 29.626
12/01/2005 5:30 p 43.2 43.2 43.2 43.2 43.1 65 32.2 0.0 0.0 --- 0.00 29.622
12/01/2005 5:40 p 43.1 43.1 43.1 43.1 43.0 65 32.2 0.0 0.0 --- 0.00 29.619
12/01/2005 5:50 p 43.0 43.0 43.0 43.0 43.0 65 32.1 0.0 0.0 --- 0.00 29.614
12/01/2005 6:00 p 43.0 43.0 43.0 43.1 43.0 66 32.4 0.0 0.0 --- 0.00 29.612
12/01/2005 6:10 p 43.1 43.1 43.1 43.1 43.0 65 32.2 0.0 0.0 --- 0.00 29.607
12/01/2005 6:20 p 43.1 43.1 43.1 43.1 43.1 64 31.8 0.0 0.0 --- 0.00 29.594
12/01/2005 6:30 p 43.1 43.1 43.1 43.1 43.1 64 31.8 0.0 0.0 --- 0.00 29.588
12/01/2005 6:40 p 43.2 43.2 43.2 43.2 43.1 64 31.9 0.0 1.0 NNW 0.00 29.583
12/01/2005 6:50 p 43.1 43.1 43.1 43.2 43.1 65 32.2 0.0 0.0 --- 0.00 29.570
12/01/2005 7:00 p 43.0 43.0 43.0 43.1 42.9 66 32.4 0.0 0.0 --- 0.00 29.568
12/01/2005 7:10 p 42.8 42.8 42.8 42.9 42.6 66 32.2 0.0 0.0 --- 0.00 29.572
12/01/2005 7:20 p 42.5 42.5 42.5 42.6 42.3 67 32.3 0.0 0.0 --- 0.00 29.568
12/01/2005 7:30 p 42.1 42.1 42.1 42.3 41.9 69 32.7 0.0 0.0 --- 0.00 29.573
12/01/2005 7:40 p 41.8 41.8 41.8 41.9 41.7 69 32.4 0.0 0.0 --- 0.00 29.575
12/01/2005 7:50 p 41.7 41.7 41.7 41.7 41.6 71 33.0 0.0 0.0 --- 0.00 29.577
12/01/2005 8:00 p 41.5 41.5 41.5 41.7 41.4 73 33.5 0.0 0.0 --- 0.00 29.572
12/01/2005 8:10 p 41.3 41.3 41.3 41.5 41.3 71 32.6 0.0 0.0 --- 0.00 29.566
12/01/2005 8:20 p 41.2 41.2 41.2 41.3 41.1 73 33.2 0.0 0.0 --- 0.00 29.563
12/01/2005 8:30 p 41.0 41.0 41.0 41.1 40.9 74 33.4 0.0 0.0 --- 0.00 29.560
12/01/2005 8:40 p 40.8 40.8 40.8 40.9 40.5 76 33.8 0.0 0.0 --- 0.00 29.558
12/01/2005 8:50 p 40.3 40.3 40.3 40.5 40.1 76 33.3 0.0 0.0 --- 0.00 29.561
12/01/2005 9:00 p 39.8 39.8 39.8 40.1 39.7 77 33.2 0.0 0.0 --- 0.00 29.558
12/01/2005 9:10 p 39.6 39.6 39.6 39.7 39.5 79 33.6 0.0 0.0 --- 0.00 29.558
12/01/2005 9:20 p 39.5 39.5 39.5 39.6 39.5 82 34.5 0.0 0.0 --- 0.00 29.556
12/01/2005 9:30 p 39.7 39.7 39.7 39.7 39.6 79 33.7 0.0 0.0 --- 0.00 29.551
12/01/2005 9:40 p 40.0 40.0 40.0 40.2 39.7 75 32.7 0.0 0.0 --- 0.00 29.545
12/01/2005 9:50 p 40.5 40.5 40.5 40.7 40.2 74 32.9 0.0 0.0 --- 0.00 29.539
12/01/2005 10:00 p 40.8 40.8 40.8 40.9 40.7 74 33.2 0.0 0.0 --- 0.00 29.536
12/01/2005 10:10 p 40.9 40.9 40.9 41.0 40.9 72 32.6 0.0 0.0 --- 0.00 29.536
12/01/2005 10:20 p 41.0 41.0 41.0 41.1 41.0 72 32.7 0.0 1.0 WNW 0.00 29.536
12/01/2005 10:30 p 41.1 41.1 41.1 41.1 41.0 71 32.4 0.0 2.0 WNW 0.00 29.531
12/01/2005 10:40 p 41.0 41.0 41.0 41.1 41.0 70 32.0 0.0 3.0 WNW 0.00 29.534
12/01/2005 10:50 p 41.0 41.0 41.0 41.1 41.0 71 32.3 0.0 2.0 SE 0.00 29.532
12/01/2005 11:00 p 41.1 41.1 41.1 41.2 41.1 72 32.8 0.0 1.0 --- 0.00 29.528
12/01/2005 11:10 p 41.2 41.2 41.2 41.3 41.2 70 32.2 0.0 0.0 --- 0.00 29.526
12/01/2005 11:20 p 41.3 41.3 41.3 41.3 41.2 72 33.0 0.0 0.0 --- 0.00 29.521
12/01/2005 11:30 p 41.3 41.3 41.3 41.4 41.3 70 32.3 0.0 0.0 --- 0.00 29.518
12/01/2005 11:40 p 41.3 41.3 41.3 41.4 41.1 69 31.9 0.0 3.0 ENE 0.00 29.513
12/01/2005 11:50 p 41.0 41.0 41.0 41.1 40.8 70 32.0 0.0 2.0 SE 0.00 29.511
12/02/2005 12:00 a 40.7 40.7 40.7 40.8 40.6 70 31.7 0.0 2.0 NW 0.00 29.508
12/02/2005 12:10 a 40.5 40.5 40.5 40.6 40.5 69 31.1 0.0 3.0 NW 0.00 29.503
12/02/2005 12:20 a 40.4 40.4 40.4 40.5 40.3 69 31.0 0.0 1.0 --- 0.00 29.504
12/02/2005 12:30 a 40.3 40.3 40.3 40.3 40.2 68 30.6 0.0 3.0 SSE 0.00 29.499
12/02/2005 12:40 a 40.1 40.1 40.1 40.2 39.9 69 30.8 0.0 3.0 ESE 0.00 29.493
12/02/2005 12:50 a 39.8 39.8 39.8 40.0 39.6 69 30.5 0.0 3.0 ESE 0.00 29.493
12/02/2005 1:00 a 39.6 39.6 39.6 39.7 39.5 67 29.6 0.0 3.0 ESE 0.00 29.491
12/02/2005 1:10 a 39.5 39.5 39.5 39.5 39.4 66 29.1 0.0 5.0 SE 0.00 29.487
12/02/2005 1:20 a 39.3 39.3 39.3 39.4 39.3 66 28.9 1.0 5.0 SE 0.00 29.483
12/02/2005 1:30 a 39.2 39.2 39.2 39.3 39.1 67 29.2 0.0 4.0 SE 0.00 29.485
12/02/2005 1:40 a 39.1 39.1 39.1 39.2 39.0 67 29.1 0.0 3.0 NW 0.00 29.482
12/02/2005 1:50 a 38.8 38.8 38.8 39.0 38.6 67 28.8 0.0 2.0 NW 0.00 29.481
12/02/2005 2:00 a 38.4 38.4 38.4 38.6 38.3 66 28.0 1.0 5.0 SE 0.00 29.478
12/02/2005 2:10 a 38.2 38.2 38.2 38.3 38.2 67 28.2 1.0 4.0 ESE 0.00 29.482
12/02/2005 2:20 a 38.1 38.1 38.1 38.2 38.0 67 28.1 0.0 4.0 SE 0.00 29.482
12/02/2005 2:30 a 38.0 38.0 38.0 38.0 37.9 67 28.0 0.0 3.0 SE 0.00 29.485
12/02/2005 2:40 a 37.9 37.9 37.9 38.0 37.8 68 28.3 1.0 4.0 SE 0.00 29.484
12/02/2005 2:50 a 37.7 37.7 37.7 37.8 37.6 69 28.5 0.0 3.0 SSE 0.00 29.485
12/02/2005 3:00 a 37.6 37.6 37.6 37.7 37.5 69 28.4 1.0 4.0 SSE 0.00 29.494
12/02/2005 3:10 a 37.5 37.5 37.5 37.5 37.4 70 28.6 1.0 4.0 SE 0.00 29.491
12/02/2005 3:20 a 37.3 37.3 37.3 37.4 37.1 71 28.8 0.0 3.0 SSE 0.00 29.496
12/02/2005 3:30 a 37.0 37.0 37.0 37.1 36.9 71 28.5 1.0 4.0 SE 0.00 29.495
12/02/2005 3:40 a 36.9 36.9 36.9 36.9 36.8 72 28.7 1.0 4.0 SE 0.00 29.495
12/02/2005 3:50 a 36.9 36.9 36.9 36.9 36.8 72 28.7 0.0 2.0 SE 0.00 29.494
12/02/2005 4:00 a 37.0 37.0 37.0 37.0 36.9 73 29.2 0.0 3.0 ESE 0.00 29.496
12/02/2005 4:10 a 37.0 37.0 37.0 37.1 37.0 72 28.8 0.0 3.0 SSW 0.00 29.501
12/02/2005 4:20 a 37.1 37.1 37.1 37.1 37.0 73 29.3 0.0 3.0 SE 0.00 29.494
12/02/2005 4:30 a 37.0 37.0 37.0 37.1 37.0 73 29.2 0.0 2.0 SSE 0.00 29.490
12/02/2005 4:40 a 37.0 37.0 37.0 37.0 37.0 72 28.8 0.0 3.0 WNW 0.00 29.494
12/02/2005 4:50 a 37.0 37.0 37.0 37.0 37.0 72 28.8 0.0 3.0 SE 0.00 29.492
12/02/2005 5:00 a 37.0 37.0 37.0 37.1 37.0 72 28.8 0.0 4.0 WNW 0.00 29.495
12/02/2005 5:10 a 37.1 37.1 37.1 37.2 37.1 72 28.9 0.0 1.0 WNW 0.00 29.498
12/02/2005 5:20 a 37.2 37.2 37.2 37.3 37.2 71 28.7 1.0 4.0 SE 0.00 29.499
12/02/2005 5:30 a 37.3 37.3 37.3 37.4 37.3 72 29.1 0.0 2.0 SE 0.00 29.498
12/02/2005 5:40 a 37.3 37.3 37.3 37.4 37.3 70 28.4 0.0 3.0 SE 0.00 29.491
12/02/2005 5:50 a 37.2 37.2 37.2 37.3 37.0 68 27.6 1.0 5.0 SE 0.00 29.492
12/02/2005 6:00 a 37.1 37.1 37.1 37.1 37.0 66 26.8 1.0 4.0 ESE 0.00 29.492
12/02/2005 6:10 a 37.2 37.2 37.2 37.3 37.1 64 26.2 1.0 4.0 ESE 0.00 29.493
12/02/2005 6:20 a 37.4 37.4 37.4 37.5 37.3 65 26.7 1.0 4.0 SE 0.00 29.494
12/02/2005 6:30 a 37.5 37.5 37.5 37.5 37.4 65 26.8 1.0 5.0 SE 0.00 29.495
12/02/2005 6:40 a 37.5 37.5 37.5 37.5 37.4 65 26.8 1.0 4.0 SE 0.00 29.495
12/02/2005 6:50 a 37.4 37.4 37.4 37.5 37.3 64 26.4 1.0 4.0 SSE 0.00 29.497
12/02/2005 7:00 a 37.2 37.2 37.2 37.3 37.1 65 26.5 0.0 2.0 S 0.00 29.504
12/02/2005 7:10 a 37.1 37.1 37.1 37.1 37.0 64 26.1 1.0 7.0 SE 0.00 29.505
12/02/2005 7:20 a 36.9 36.9 36.9 37.0 36.8 64 25.9 1.0 7.0 SSE 0.00 29.502
12/02/2005 7:30 a 36.7 36.7 36.7 36.8 36.6 65 26.1 0.0 4.0 SSE 0.00 29.509
12/02/2005 7:40 a 36.4 36.4 36.4 36.6 36.3 65 25.8 0.0 4.0 SE 0.00 29.509
12/02/2005 7:50 a 36.2 36.2 36.2 36.3 36.1 65 25.6 0.0 3.0 SE 0.00 29.515
12/02/2005 8:00 a 36.1 36.1 36.1 36.1 36.0 66 25.9 0.0 2.0 SE 0.00 29.515
12/02/2005 8:10 a 36.1 36.1 36.1 36.3 36.0 64 25.1 1.0 4.0 SE 0.00 29.517
12/02/2005 8:20 a 36.6 36.6 36.6 36.9 36.3 65 26.0 1.0 6.0 SE 0.00 29.523
12/02/2005 8:30 a 37.1 37.1 37.1 37.3 36.9 64 26.1 1.0 5.0 SSE 0.00 29.523
12/02/2005 8:40 a 37.3 37.3 37.3 37.5 37.3 64 26.3 1.0 6.0 SE 0.00 29.522
12/02/2005 8:50 a 37.9 37.9 37.9 38.3 37.4 63 26.4 1.0 5.0 SE 0.00 29.524
12/02/2005 9:00 a 38.7 38.7 38.7 39.0 38.3 61 26.4 1.0 3.0 SSE 0.00 29.528
12/02/2005 9:10 a 39.1 39.1 39.1 39.1 39.0 60 26.4 1.0 4.0 SSE 0.00 29.532
12/02/2005 9:20 a 39.2 39.2 39.2 39.3 39.1 58 25.7 1.0 5.0 SE 0.00 29.532
12/02/2005 9:30 a 39.4 39.4 39.4 39.5 39.3 56 25.0 2.0 7.0 SE 0.00 29.538
12/02/2005 9:40 a 39.6 39.6 39.6 39.7 39.5 55 24.8 3.0 9.0 SE 0.00 29.540
12/02/2005 9:50 a 39.8 39.8 39.8 39.9 39.6 56 25.4 2.0 6.0 SE 0.00 29.539
12/02/2005 10:00 a 40.1 40.1 40.1 40.2 39.9 55 25.2 2.0 5.0 SE 0.00 29.542
12/02/2005 10:10 a 40.1 40.1 40.1 40.2 40.1 54 24.8 2.0 7.0 SE 0.00 29.540
12/02/2005 10:20 a 40.1 40.1 40.1 40.1 40.0 55 25.2 2.0 7.0 SE 0.00 29.542
12/02/2005 10:30 a 40.2 40.2 40.2 40.3 40.1 58 26.6 1.0 4.0 SE 0.00 29.538
12/02/2005 10:40 a 40.3 40.3 40.3 40.4 40.3 58 26.7 2.0 6.0 SE 0.00 29.539
12/02/2005 10:50 a 40.5 40.5 40.5 40.6 40.4 58 26.9 1.0 4.0 SE 0.00 29.537
12/02/2005 11:00 a 40.3 40.3 40.3 40.5 40.1 57 26.3 2.0 8.0 S 0.00 29.534
12/02/2005 11:10 a 40.0 40.0 40.0 40.1 39.9 59 26.8 2.0 7.0 SE 0.00 29.539
12/02/2005 11:20 a 39.8 39.8 39.8 39.9 39.6 62 27.9 2.0 5.0 SSE 0.00 29.537
12/02/2005 11:30 a 39.8 39.8 39.8 40.0 39.6 60 27.1 2.0 7.0 SE 0.00 29.529
12/02/2005 11:40 a 39.8 39.8 39.8 40.0 39.6 59 26.7 3.0 13.0 SE 0.00 29.526
12/02/2005 11:50 a 39.7 39.7 39.7 39.8 39.6 59 26.6 1.0 7.0 SE 0.00 29.527
12/02/2005 12:00 p 40.0 40.0 40.0 40.1 39.9 55 25.2 3.0 14.0 SE 0.00 29.518
12/02/2005 12:10 p 40.1 40.1 40.1 40.3 40.0 56 25.7 3.0 9.0 SE 0.00 29.514
12/02/2005 12:20 p 40.5 40.5 40.5 40.7 40.2 53 24.7 2.0 8.0 SE 0.00 29.513
12/02/2005 12:30 p 40.8 40.8 40.8 40.9 40.6 51 24.1 3.0 8.0 SE 0.00 29.504
12/02/2005 12:40 p 41.1 41.1 41.1 41.2 40.9 49 23.4 3.0 13.0 SE 0.00 29.501
12/02/2005 12:50 p 41.3 41.3 41.3 41.3 41.2 48 23.1 2.0 9.0 SE 0.00 29.500
12/02/2005 1:00 p 41.0 41.0 41.0 41.2 40.8 48 22.8 3.0 12.0 SE 0.00 29.498
12/02/2005 1:10 p 40.7 40.7 40.7 40.8 40.6 50 23.5 2.0 7.0 SE 0.00 29.491
12/02/2005 1:20 p 40.9 40.9 40.9 41.4 40.7 50 23.7 2.0 7.0 SE 0.00 29.492
12/02/2005 1:30 p 42.1 42.1 42.1 42.6 41.4 47 23.3 2.0 11.0 SE 0.00 29.490
12/02/2005 1:40 p 42.2 42.2 42.2 42.5 41.9 49 24.4 2.0 7.0 S 0.00 29.493
12/02/2005 1:50 p 41.4 41.4 41.4 41.9 41.1 49 23.7 2.0 9.0 SE 0.00 29.491
12/02/2005 2:00 p 41.0 41.0 41.0 41.1 40.9 51 24.3 2.0 7.0 SE 0.00 29.488
12/02/2005 2:10 p 41.0 41.0 41.0 41.2 40.9 49 23.3 3.0 11.0 SE 0.00 29.492
12/02/2005 2:20 p 41.1 41.1 41.1 41.2 41.0 48 22.9 3.0 8.0 SE 0.00 29.495
12/02/2005 2:30 p 40.9 40.9 40.9 41.1 40.8 50 23.7 2.0 8.0 SE 0.00 29.494
12/02/2005 2:40 p 40.6 40.6 40.6 40.8 40.4 47 22.0 2.0 9.0 SSE 0.00 29.501
12/02/2005 2:50 p 40.3 40.3 40.3 40.4 40.2 46 21.2 3.0 7.0 SE 0.00 29.506
12/02/2005 3:00 p 40.2 40.2 40.2 40.3 40.1 47 21.6 3.0 12.0 SE 0.00 29.510
12/02/2005 3:10 p 40.0 40.0 40.0 40.1 39.9 45 20.4 3.0 10.0 SE 0.00 29.512
12/02/2005 3:20 p 39.7 39.7 39.7 39.9 39.6 47 21.1 2.0 9.0 SE 0.00 29.516
12/02/2005 3:30 p 39.4 39.4 39.4 39.6 39.1 49 21.8 2.0 9.0 SE 0.00 29.522
12/02/2005 3:40 p 39.0 39.0 39.0 39.1 39.0 50 22.0 2.0 6.0 SE 0.00 29.525
12/02/2005 3:50 p 39.0 39.0 39.0 39.0 38.8 48 21.0 3.0 7.0 SE 0.00 29.529
12/02/2005 4:00 p 38.7 38.7 38.7 38.8 38.5 48 20.7 2.0 8.0 SE 0.00 29.539
12/02/2005 4:10 p 38.4 38.4 38.4 38.5 38.3 49 20.9 3.0 9.0 SE 0.00 29.533
12/02/2005 4:20 p 38.3 38.3 38.3 38.3 38.2 48 20.3 2.0 6.0 SE 0.00 29.537
12/02/2005 4:30 p 38.2 38.2 38.2 38.2 38.1 48 20.3 3.0 8.0 SSE 0.00 29.544
12/02/2005 4:40 p 38.0 38.0 38.0 38.1 37.9 48 20.1 3.0 12.0 SSE 0.00 29.545
12/02/2005 4:50 p 37.8 37.8 37.8 37.9 37.8 49 20.4 2.0 10.0 SE 0.00 29.543
12/02/2005 5:00 p 37.8 37.8 37.8 37.8 37.7 50 20.8 2.0 10.0 SE 0.00 29.557
12/02/2005 5:10 p 37.7 37.7 37.7 37.8 37.7 49 20.3 2.0 9.0 SE 0.00 29.560
12/02/2005 5:20 p 37.6 37.6 37.6 37.7 37.5 50 20.7 2.0 14.0 SE 0.00 29.561
12/02/2005 5:30 p 37.4 37.4 37.4 37.5 37.2 49 20.0 2.0 5.0 S 0.00 29.568
12/02/2005 5:40 p 37.1 37.1 37.1 37.2 37.0 49 19.7 3.0 10.0 SE 0.00 29.575
12/02/2005 5:50 p 36.9 36.9 36.9 37.0 36.7 50 20.0 2.0 8.0 SE 0.00 29.582
12/02/2005 6:00 p 36.6 36.6 36.6 36.8 36.5 50 19.7 2.0 9.0 SE 0.00 29.583
12/02/2005 6:10 p 36.4 36.4 36.4 36.5 36.3 51 20.0 2.0 8.0 SSE 0.00 29.586
12/02/2005 6:20 p 36.3 36.3 36.3 36.3 36.2 51 19.9 2.0 6.0 ESE 0.00 29.590
12/02/2005 6:30 p 36.2 36.2 36.2 36.3 36.1 51 19.8 2.0 7.0 SE 0.00 29.596
12/02/2005 6:40 p 36.1 36.1 36.1 36.2 36.1 51 19.7 2.0 8.0 SE 0.00 29.606
12/02/2005 6:50 p 36.1 36.1 36.1 36.1 35.9 52 20.2 2.0 8.0 SE 0.00 29.613
12/02/2005 7:00 p 35.9 35.9 35.9 35.9 35.8 51 19.5 2.0 4.0 SE 0.00 29.622
12/02/2005 7:10 p 35.7 35.7 35.7 35.8 35.5 52 19.8 1.0 6.0 SE 0.00 29.624
12/02/2005 7:20 p 35.3 35.3 35.3 35.5 35.2 52 19.4 2.0 11.0 SE 0.00 29.628
12/02/2005 7:30 p 35.1 35.1 35.1 35.2 35.0 53 19.7 2.0 7.0 SE 0.00 29.636
12/02/2005 7:40 p 34.9 34.9 34.9 35.0 34.8 52 19.1 2.0 7.0 SE 0.00 29.638
12/02/2005 7:50 p 34.7 34.7 34.7 34.8 34.6 54 19.8 2.0 9.0 SE 0.00 29.641
12/02/2005 8:00 p 34.5 34.5 34.5 34.7 34.4 54 19.6 2.0 11.0 SE 0.00 29.646
12/02/2005 8:10 p 34.3 34.3 34.3 34.4 34.2 54 19.4 1.0 5.0 S 0.00 29.650
12/02/2005 8:20 p 34.1 34.1 34.1 34.2 34.1 54 19.2 2.0 6.0 SE 0.00 29.658
12/02/2005 8:30 p 34.0 34.0 34.0 34.1 33.9 54 19.1 1.0 6.0 S 0.00 29.662
12/02/2005 8:40 p 33.9 33.9 33.9 34.0 33.8 55 19.5 1.0 5.0 SE 0.00 29.665
12/02/2005 8:50 p 33.7 33.7 33.7 33.8 33.7 54 18.8 2.0 6.0 SSE 0.00 29.670
12/02/2005 9:00 p 33.6 33.6 33.6 33.7 33.5 55 19.2 2.0 7.0 SE 0.00 29.676
12/02/2005 9:10 p 33.4 33.4 33.4 33.5 33.3 54 18.6 2.0 6.0 SE 0.00 29.678
12/02/2005 9:20 p 33.3 33.3 33.3 33.4 33.2 55 18.9 3.0 8.0 SE 0.00 29.683
12/02/2005 9:30 p 33.1 33.1 33.1 33.3 33.0 56 19.1 1.0 6.0 ESE 0.00 29.689
12/02/2005 9:40 p 32.9 32.9 32.9 33.0 32.7 55 18.5 2.0 8.0 SE 0.00 29.692
12/02/2005 9:50 p 32.7 32.7 32.7 32.8 32.7 55 18.3 2.0 6.0 SE 0.00 29.694
12/02/2005 10:00 p 32.6 32.6 32.6 32.7 32.6 56 18.7 2.0 7.0 SE 0.00 29.695
12/02/2005 10:10 p 32.5 32.5 32.5 32.6 32.3 56 18.6 1.0 5.0 SE 0.00 29.699
12/02/2005 10:20 p 32.3 32.3 32.3 32.4 32.2 57 18.8 2.0 8.0 SE 0.00 29.704
12/02/2005 10:30 p 32.2 32.2 32.2 32.2 32.1 56 18.3 2.0 7.0 SE 0.00 29.704
12/02/2005 10:40 p 32.2 32.2 32.2 32.2 32.1 57 18.7 2.0 8.0 SE 0.00 29.712
12/02/2005 10:50 p 32.0 32.0 32.0 32.1 32.0 56 18.1 2.0 8.0 SE 0.00 29.716
12/02/2005 11:00 p 31.9 31.9 31.9 32.0 31.8 56 18.0 2.0 7.0 SE 0.00 29.718
12/02/2005 11:10 p 31.7 31.7 31.7 31.8 31.6 57 18.2 2.0 6.0 SE 0.00 29.724
12/02/2005 11:20 p 31.6 31.6 31.6 31.7 31.5 58 18.5 2.0 6.0 SE 0.00 29.721
12/02/2005 11:30 p 31.5 31.5 31.5 31.5 31.4 58 18.4 2.0 7.0 SE 0.00 29.722
12/02/2005 11:40 p 31.3 31.3 31.3 31.5 31.2 58 18.3 2.0 4.0 SSE 0.00 29.732
12/02/2005 11:50 p 31.2 31.2 31.2 31.3 31.2 60 18.9 1.0 5.0 SE 0.00 29.735
12/03/2005 12:00 a 31.1 31.1 31.1 31.2 31.0 59 18.5 1.0 4.0 SE 0.00 29.739
12/03/2005 12:10 a 31.0 31.0 31.0 31.2 30.9 59 18.4 2.0 6.0 SE 0.00 29.745
12/03/2005 12:20 a 31.2 31.2 31.2 31.3 31.1 59 18.6 2.0 6.0 SE 0.00 29.746
12/03/2005 12:30 a 31.2 31.2 31.2 31.3 31.2 59 18.6 1.0 6.0 SE 0.00 29.747
12/03/2005 12:40 a 31.0 31.0 31.0 31.2 31.0 59 18.4 1.0 5.0 SE 0.00 29.752
12/03/2005 12:50 a 31.0 31.0 31.0 31.1 31.0 59 18.4 2.0 7.0 SE 0.00 29.753
12/03/2005 1:00 a 31.0 31.0 31.0 31.0 30.9 58 18.0 2.0 7.0 SE 0.00 29.762
12/03/2005 1:10 a 30.9 30.9 30.9 31.0 30.9 58 17.9 2.0 6.0 SE 0.00 29.762
12/03/2005 1:20 a 30.9 30.9 30.9 30.9 30.9 57 17.5 2.0 7.0 SE 0.00 29.753
12/03/2005 1:30 a 30.9 30.9 30.9 30.9 30.9 57 17.5 2.0 8.0 SE 0.00 29.762
12/03/2005 1:40 a 30.8 30.8 30.8 30.9 30.6 60 18.6 1.0 4.0 SE 0.00 29.759
12/03/2005 1:50 a 30.5 30.5 30.5 30.6 30.4 61 18.7 1.0 6.0 WNW 0.00 29.769
12/03/2005 2:00 a 30.3 30.3 30.3 30.5 30.2 62 18.9 1.0 5.0 SE 0.00 29.770
12/03/2005 2:10 a 30.2 30.2 30.2 30.2 30.1 61 18.4 1.0 4.0 ESE 0.00 29.774
12/03/2005 2:20 a 30.0 30.0 30.0 30.1 30.0 61 18.2 1.0 3.0 SSE 0.00 29.777
12/03/2005 2:30 a 30.0 30.0 30.0 30.0 30.0 59 17.4 1.0 5.0 SE 0.00 29.780
12/03/2005 2:40 a 30.1 30.1 30.1 30.1 30.0 58 17.1 1.0 6.0 SE 0.00 29.788
12/03/2005 2:50 a 30.1 30.1 30.1 30.2 30.1 58 17.1 1.0 4.0 SE 0.00 29.797
12/03/2005 3:00 a 30.1 30.1 30.1 30.2 30.1 58 17.1 1.0 6.0 SE 0.00 29.797
12/03/2005 3:10 a 30.1 30.1 30.1 30.1 30.0 57 16.7 1.0 4.0 SE 0.00 29.799
12/03/2005 3:20 a 30.1 30.1 30.1 30.1 30.0 57 16.7 1.0 4.0 SSE 0.00 29.807
12/03/2005 3:30 a 29.9 29.9 29.9 30.0 29.9 58 16.9 1.0 3.0 SE 0.00 29.807
12/03/2005 3:40 a 29.8 29.8 29.8 29.9 29.7 58 16.8 1.0 3.0 SE 0.00 29.814
12/03/2005 3:50 a 29.6 29.6 29.6 29.7 29.5 59 17.0 0.0 2.0 SE 0.00 29.825
12/03/2005 4:00 a 29.4 29.4 29.4 29.5 29.3 60 17.2 1.0 3.0 SE 0.00 29.829
12/03/2005 4:10 a 29.4 29.4 29.4 29.5 29.3 60 17.2 1.0 3.0 SSE 0.00 29.828
12/03/2005 4:20 a 29.3 29.3 29.3 29.4 29.2 60 17.2 1.0 4.0 S 0.00 29.834
12/03/2005 4:30 a 29.0 29.0 29.0 29.2 28.9 62 17.6 1.0 3.0 S 0.00 29.841
12/03/2005 4:40 a 28.8 28.8 28.8 28.9 28.7 62 17.4 0.0 3.0 SE 0.00 29.846
12/03/2005 4:50 a 28.7 28.7 28.7 28.7 28.7 62 17.3 0.0 3.0 SSE 0.00 29.852
12/03/2005 5:00 a 28.8 28.8 28.8 29.0 28.7 64 18.2 0.0 3.0 SSE 0.00 29.851
12/03/2005 5:10 a 29.2 29.2 29.2 29.3 29.0 64 18.6 0.0 1.0 SSE 0.00 29.856
12/03/2005 5:20 a 29.2 29.2 29.2 29.3 29.0 65 18.9 0.0 1.0 SSE 0.00 29.859
12/03/2005 5:30 a 28.9 28.9 28.9 29.1 28.8 63 17.9 0.0 1.0 NNE 0.00 29.861
12/03/2005 5:40 a 28.7 28.7 28.7 28.8 28.6 63 17.7 0.0 1.0 ESE 0.00 29.865
12/03/2005 5:50 a 28.3 28.3 28.3 28.6 28.1 63 17.3 0.0 2.0 NW 0.00 29.872
12/03/2005 6:00 a 28.0 28.0 28.0 28.1 27.8 64 17.4 0.0 0.0 --- 0.00 29.875
12/03/2005 6:10 a 27.8 27.8 27.8 27.9 27.8 64 17.2 0.0 1.0 WNW 0.00 29.877
12/03/2005 6:20 a 28.0 28.0 28.0 28.1 27.9 64 17.4 0.0 2.0 S 0.00 29.880
12/03/2005 6:30 a 28.1 28.1 28.1 28.2 28.1 63 17.1 0.0 2.0 S 0.00 29.882
12/03/2005 6:40 a 28.0 28.0 28.0 28.1 27.9 64 17.4 0.0 2.0 SSW 0.00 29.885
12/03/2005 6:50 a 27.9 27.9 27.9 28.0 27.9 63 17.0 0.0 2.0 W 0.00 29.888
12/03/2005 7:00 a 28.1 28.1 28.1 28.2 28.0 63 17.1 0.0 1.0 SW 0.00 29.893
12/03/2005 7:10 a 28.3 28.3 28.3 28.3 28.1 63 17.3 0.0 2.0 S 0.00 29.898
12/03/2005 7:20 a 28.3 28.3 28.3 28.4 28.2 63 17.3 0.0 2.0 S 0.00 29.903
12/03/2005 7:30 a 28.2 28.2 28.2 28.2 28.2 63 17.2 0.0 2.0 S 0.00 29.908
12/03/2005 7:40 a 28.4 28.4 28.4 28.5 28.2 63 17.4 0.0 2.0 SSE 0.00 29.910
12/03/2005 7:50 a 28.7 28.7 28.7 28.8 28.5 61 17.0 1.0 4.0 SSE 0.00 29.913
12/03/2005 8:00 a 28.9 28.9 28.9 29.0 28.8 61 17.2 0.0 5.0 SE 0.00 29.912
12/03/2005 8:10 a 29.0 29.0 29.0 29.0 28.9 60 16.9 0.0 4.0 SSE 0.00 29.914
12/03/2005 8:20 a 29.1 29.1 29.1 29.1 29.0 60 17.0 0.0 2.0 S 0.00 29.918
12/03/2005 8:30 a 29.1 29.1 29.1 29.2 29.1 60 17.0 0.0 3.0 S 0.00 29.920
12/03/2005 8:40 a 29.4 29.4 29.4 29.6 29.2 59 16.9 1.0 3.0 S 0.00 29.922
12/03/2005 8:50 a 30.0 30.0 30.0 30.4 29.6 58 17.0 1.0 3.0 SSE 0.00 29.925
12/03/2005 9:00 a 30.7 30.7 30.7 30.9 30.4 56 16.9 1.0 5.0 SSE 0.00 29.931
12/03/2005 9:10 a 30.9 30.9 30.9 31.0 30.8 56 17.1 1.0 4.0 S 0.00 29.932
12/03/2005 9:20 a 31.1 31.1 31.1 31.3 31.0 55 16.8 2.0 5.0 SE 0.00 29.933
12/03/2005 9:30 a 31.2 31.2 31.2 31.3 31.2 55 16.9 1.0 7.0 SSE 0.00 29.936
12/03/2005 9:40 a 31.4 31.4 31.4 31.5 31.3 54 16.7 2.0 6.0 SE 0.00 29.935
12/03/2005 9:50 a 31.6 31.6 31.6 31.6 31.5 54 16.9 2.0 6.0 SSE 0.00 29.936
12/03/2005 10:00 a 31.6 31.6 31.6 31.8 31.6 54 16.9 2.0 5.0 SE 0.00 29.936
12/03/2005 10:10 a 31.9 31.9 31.9 32.0 31.8 53 16.7 2.0 6.0 SE 0.00 29.939
12/03/2005 10:20 a 32.1 32.1 32.1 32.2 32.0 52 16.5 2.0 7.0 SE 0.00 29.940
12/03/2005 10:30 a 32.2 32.2 32.2 32.3 32.2 51 16.1 2.0 7.0 SE 0.00 29.939
12/03/2005 10:40 a 32.5 32.5 32.5 32.6 32.3 51 16.4 2.0 7.0 SE 0.00 29.940
12/03/2005 10:50 a 32.8 32.8 32.8 33.1 32.6 49 15.8 2.0 11.0 SE 0.00 29.932
12/03/2005 11:00 a 33.1 33.1 33.1 33.2 33.0 49 16.0 3.0 10.0 SE 0.00 29.929
12/03/2005 11:10 a 33.1 33.1 33.1 33.2 33.0 48 15.6 3.0 7.0 SE 0.00 29.924
12/03/2005 11:20 a 33.3 33.3 33.3 33.6 33.1 48 15.7 2.0 8.0 SE 0.00 29.922
12/03/2005 11:30 a 33.7 33.7 33.7 33.8 33.6 48 16.1 2.0 7.0 SE 0.00 29.925
12/03/2005 11:40 a 33.9 33.9 33.9 34.1 33.7 48 16.3 2.0 6.0 SSE 0.00 29.923
12/03/2005 11:50 a 34.3 34.3 34.3 34.6 34.1 47 16.2 2.0 6.0 S 0.00 29.922
12/03/2005 12:00 p 34.4 34.4 34.4 34.6 34.3 46 15.8 2.0 8.0 SE 0.00 29.918
12/03/2005 12:10 p 34.5 34.5 34.5 34.7 34.2 47 16.4 2.0 6.0 SE 0.00 29.922
12/03/2005 12:20 p 34.4 34.4 34.4 34.5 34.1 47 16.3 2.0 8.0 SE 0.00 29.920
12/03/2005 12:30 p 33.9 33.9 33.9 34.1 33.8 48 16.3 2.0 7.0 SE 0.00 29.923
12/03/2005 12:40 p 34.1 34.1 34.1 34.2 33.9 48 16.5 2.0 5.0 SE 0.00 29.917
12/03/2005 12:50 p 34.2 34.2 34.2 34.3 34.0 48 16.6 2.0 7.0 SE 0.00 29.911
12/03/2005 1:00 p 34.4 34.4 34.4 34.7 34.2 48 16.8 2.0 6.0 SE 0.00 29.908
12/03/2005 1:10 p 34.7 34.7 34.7 34.7 34.6 47 16.5 1.0 4.0 ESE 0.00 29.910
12/03/2005 1:20 p 34.9 34.9 34.9 35.1 34.7 48 17.2 1.0 6.0 SSE 0.00 29.904
12/03/2005 1:30 p 35.3 35.3 35.3 35.5 35.1 46 16.6 2.0 5.0 SSE 0.00 29.902
12/03/2005 1:40 p 35.3 35.3 35.3 35.5 35.2 45 16.1 2.0 12.0 SE 0.00 29.899
12/03/2005 1:50 p 35.3 35.3 35.3 35.6 35.2 46 16.6 2.0 8.0 SE 0.00 29.899
12/03/2005 2:00 p 35.8 35.8 35.8 36.0 35.6 43 15.5 2.0 8.0 SE 0.00 29.899
12/03/2005 2:10 p 35.6 35.6 35.6 35.8 35.5 45 16.4 2.0 6.0 S 0.00 29.898
12/03/2005 2:20 p 35.6 35.6 35.6 35.7 35.5 44 15.9 2.0 6.0 SE 0.00 29.904
12/03/2005 2:30 p 35.0 35.0 35.0 35.4 34.5 45 15.8 1.0 6.0 NNW 0.00 29.900
12/03/2005 2:40 p 34.2 34.2 34.2 34.5 34.0 46 15.6 2.0 7.0 ESE 0.00 29.899
12/03/2005 2:50 p 34.1 34.1 34.1 34.3 34.0 44 14.5 3.0 9.0 SE 0.00 29.892
12/03/2005 3:00 p 34.5 34.5 34.5 34.7 34.3 42 13.8 3.0 10.0 SE 0.00 29.891
12/03/2005 3:10 p 34.7 34.7 34.7 34.7 34.6 43 14.5 3.0 9.0 SE 0.00 29.892
12/03/2005 3:20 p 34.8 34.8 34.8 34.9 34.7 42 14.1 2.0 6.0 SE 0.00 29.894
12/03/2005 3:30 p 35.0 35.0 35.0 35.1 34.9 42 14.2 2.0 4.0 ESE 0.00 29.895
12/03/2005 3:40 p 35.1 35.1 35.1 35.2 34.9 43 14.9 1.0 4.0 SW 0.00 29.899
12/03/2005 3:50 p 34.6 34.6 34.6 34.9 34.4 45 15.5 2.0 5.0 SE 0.00 29.904
12/03/2005 4:00 p 34.2 34.2 34.2 34.5 33.9 45 15.1 1.0 4.0 SE 0.00 29.908
12/03/2005 4:10 p 33.9 33.9 33.9 34.0 33.8 45 14.8 1.0 6.0 SE 0.00 29.912
12/03/2005 4:20 p 33.8 33.8 33.8 33.9 33.8 46 15.2 1.0 5.0 SE 0.00 29.913
12/03/2005 4:30 p 33.7 33.7 33.7 33.8 33.7 46 15.1 2.0 7.0 SE 0.00 29.923
12/03/2005 4:40 p 33.6 33.6 33.6 33.7 33.5 45 14.5 1.0 5.0 SE 0.00 29.927
12/03/2005 4:50 p 33.3 33.3 33.3 33.5 33.2 46 14.8 1.0 5.0 SE 0.00 29.932
12/03/2005 5:00 p 33.1 33.1 33.1 33.2 33.0 45 14.1 2.0 6.0 SE 0.00 29.932
12/03/2005 5:10 p 32.9 32.9 32.9 33.0 32.7 46 14.4 2.0 6.0 SE 0.00 29.934
12/03/2005 5:20 p 32.7 32.7 32.7 32.8 32.5 47 14.7 1.0 5.0 ESE 0.00 29.937
12/03/2005 5:30 p 32.3 32.3 32.3 32.5 32.1 49 15.3 1.0 3.0 SE 0.00 29.936
12/03/2005 5:40 p 32.0 32.0 32.0 32.1 31.9 49 15.0 1.0 4.0 ESE 0.00 29.940
12/03/2005 5:50 p 31.8 31.8 31.8 31.9 31.7 50 15.3 0.0 2.0 ESE 0.00 29.941
12/03/2005 6:00 p 31.5 31.5 31.5 31.7 31.3 51 15.5 0.0 1.0 ESE 0.00 29.945
12/03/2005 6:10 p 31.2 31.2 31.2 31.3 31.2 51 15.2 0.0 2.0 ESE 0.00 29.947
12/03/2005 6:20 p 31.1 31.1 31.1 31.2 31.0 52 15.5 0.0 2.0 ESE 0.00 29.948
12/03/2005 6:30 p 30.9 30.9 30.9 31.1 30.7 53 15.8 0.0 0.0 --- 0.00 29.945
12/03/2005 6:40 p 30.6 30.6 30.6 30.7 30.4 55 16.4 0.0 0.0 --- 0.00 29.953
12/03/2005 6:50 p 30.3 30.3 30.3 30.4 30.2 54 15.7 0.0 2.0 ESE 0.00 29.956
12/03/2005 7:00 p 30.2 30.2 30.2 30.3 30.2 55 16.0 0.0 3.0 ESE 0.00 29.959
12/03/2005 7:10 p 30.1 30.1 30.1 30.2 29.9 56 16.3 0.0 0.0 --- 0.00 29.960
12/03/2005 7:20 p 29.9 29.9 29.9 30.0 29.7 56 16.1 0.0 0.0 --- 0.00 29.964
12/03/2005 7:30 p 29.6 29.6 29.6 29.7 29.5 57 16.3 0.0 3.0 ESE 0.00 29.956
12/03/2005 7:40 p 29.5 29.5 29.5 29.6 29.4 56 15.8 1.0 2.0 ESE 0.00 29.951
12/03/2005 7:50 p 29.6 29.6 29.6 29.7 29.5 56 15.8 0.0 2.0 ESE 0.00 29.949
12/03/2005 8:00 p 29.5 29.5 29.5 29.6 29.4 56 15.8 0.0 0.0 --- 0.00 29.953
12/03/2005 8:10 p 29.3 29.3 29.3 29.4 29.2 57 16.0 0.0 0.0 --- 0.00 29.957
12/03/2005 8:20 p 29.1 29.1 29.1 29.2 29.0 59 16.6 0.0 0.0 --- 0.00 29.952
12/03/2005 8:30 p 28.9 28.9 28.9 29.0 28.7 61 17.2 0.0 0.0 --- 0.00 29.954
12/03/2005 8:40 p 28.5 28.5 28.5 28.7 28.4 62 17.2 0.0 0.0 --- 0.00 29.955
12/03/2005 8:50 p 28.3 28.3 28.3 28.4 28.2 62 17.0 0.0 0.0 --- 0.00 29.958
12/03/2005 9:00 p 28.1 28.1 28.1 28.2 28.1 63 17.1 0.0 0.0 --- 0.00 29.964
12/03/2005 9:10 p 28.1 28.1 28.1 28.1 28.0 62 16.8 0.0 0.0 --- 0.00 29.965
12/03/2005 9:20 p 27.9 27.9 27.9 28.1 27.8 63 17.0 0.0 0.0 --- 0.00 29.959
12/03/2005 9:30 p 27.7 27.7 27.7 27.8 27.6 63 16.8 0.0 0.0 --- 0.00 29.958
12/03/2005 9:40 p 27.5 27.5 27.5 27.6 27.3 64 16.9 0.0 0.0 --- 0.00 29.958
12/03/2005 9:50 p 27.2 27.2 27.2 27.3 27.1 66 17.4 0.0 0.0 --- 0.00 29.963
12/03/2005 10:00 p 27.0 27.0 27.0 27.1 27.0 67 17.5 0.0 0.0 --- 0.00 29.961
12/03/2005 10:10 p 27.0 27.0 27.0 27.0 26.9 66 17.2 0.0 0.0 --- 0.00 29.958
12/03/2005 10:20 p 26.9 26.9 26.9 26.9 26.8 66 17.1 0.0 0.0 --- 0.00 29.958
12/03/2005 10:30 p 26.8 26.8 26.8 26.8 26.7 68 17.7 0.0 0.0 --- 0.00 29.962
12/03/2005 10:40 p 26.9 26.9 26.9 27.0 26.8 67 17.4 0.0 0.0 --- 0.00 29.961
12/03/2005 10:50 p 27.0 27.0 27.0 27.0 26.9 66 17.2 0.0 0.0 --- 0.00 29.956
12/03/2005 11:00 p 27.0 27.0 27.0 27.0 27.0 65 16.8 0.0 0.0 --- 0.00 29.958
12/03/2005 11:10 p 27.1 27.1 27.1 27.1 27.0 65 16.9 0.0 0.0 --- 0.00 29.951
12/03/2005 11:20 p 27.2 27.2 27.2 27.2 27.1 66 17.4 0.0 0.0 --- 0.00 29.945
12/03/2005 11:30 p 27.2 27.2 27.2 27.3 27.1 67 17.7 0.0 0.0 --- 0.00 29.956
12/03/2005 11:40 p 27.2 27.2 27.2 27.3 27.2 67 17.7 0.0 0.0 --- 0.00 29.950
12/03/2005 11:50 p 27.2 27.2 27.2 27.3 27.2 66 17.4 0.0 0.0 --- 0.00 29.949
12/04/2005 12:00 a 27.2 27.2 27.2 27.2 27.1 65 17.0 0.0 0.0 --- 0.00 29.942
12/04/2005 12:10 a 27.2 27.2 27.2 27.2 27.1 66 17.4 0.0 0.0 --- 0.00 29.941
12/04/2005 12:20 a 27.2 27.2 27.2 27.3 27.2 67 17.7 0.0 0.0 --- 0.00 29.940
12/04/2005 12:30 a 27.3 27.3 27.3 27.3 27.2 66 17.5 0.0 0.0 --- 0.00 29.933
12/04/2005 12:40 a 27.3 27.3 27.3 27.3 27.2 64 16.7 0.0 0.0 --- 0.00 29.924
12/04/2005 12:50 a 27.5 27.5 27.5 27.7 27.3 67 18.0 0.0 0.0 --- 0.00 29.937
12/04/2005 1:00 a 27.8 27.8 27.8 28.0 27.7 67 18.3 0.0 0.0 --- 0.00 29.935
12/04/2005 1:10 a 28.0 28.0 28.0 28.1 27.9 66 18.1 0.0 0.0 --- 0.00 29.933
12/04/2005 1:20 a 28.1 28.1 28.1 28.2 28.0 65 17.9 0.0 0.0 --- 0.00 29.923
12/04/2005 1:30 a 28.3 28.3 28.3 28.4 28.2 64 17.7 0.0 0.0 --- 0.00 29.909
12/04/2005 1:40 a 28.4 28.4 28.4 28.5 28.3 64 17.8 0.0 0.0 --- 0.00 29.906
12/04/2005 1:50 a 28.6 28.6 28.6 28.6 28.5 63 17.6 0.0 0.0 --- 0.00 29.900
12/04/2005 2:00 a 28.7 28.7 28.7 28.7 28.6 63 17.7 0.0 0.0 --- 0.00 29.895
12/04/2005 2:10 a 28.8 28.8 28.8 28.9 28.7 63 17.8 0.0 0.0 --- 0.00 29.890
12/04/2005 2:20 a 28.9 28.9 28.9 29.1 28.9 66 19.0 0.0 0.0 --- 0.00 29.899
12/04/2005 2:30 a 29.1 29.1 29.1 29.2 29.0 66 19.2 0.0 0.0 --- 0.00 29.901
12/04/2005 2:40 a 29.2 29.2 29.2 29.3 29.2 67 19.6 0.0 0.0 --- 0.00 29.901
12/04/2005 2:50 a 29.3 29.3 29.3 29.3 29.3 71 21.1 0.0 1.0 ENE 0.00 29.891
12/04/2005 3:00 a 29.2 29.2 29.2 29.3 29.0 75 22.3 0.0 0.0 --- 0.00 29.881
12/04/2005 3:10 a 28.7 28.7 28.7 29.1 28.4 80 23.3 0.0 0.0 --- 0.00 29.871
12/04/2005 3:20 a 28.2 28.2 28.2 28.4 28.1 81 23.1 0.0 0.0 --- 0.00 29.871
12/04/2005 3:30 a 28.0 28.0 28.0 28.1 27.8 83 23.5 0.0 0.0 --- 0.00 29.865
12/04/2005 3:40 a 27.8 27.8 27.8 27.8 27.7 85 23.9 0.0 0.0 --- 0.00 29.862
12/04/2005 3:50 a 27.6 27.6 27.6 27.7 27.5 86 24.0 0.0 0.0 --- 0.00 29.857
12/04/2005 4:00 a 27.4 27.4 27.4 27.5 27.3 87 24.0 0.0 0.0 --- 0.00 29.845
12/04/2005 4:10 a 27.2 27.2 27.2 27.3 27.1 87 23.9 0.0 0.0 --- 0.00 29.837
12/04/2005 4:20 a 27.2 27.2 27.2 27.2 27.1 88 24.1 0.0 0.0 --- 0.00 29.825
12/04/2005 4:30 a 27.2 27.2 27.2 27.2 27.1 89 24.4 0.0 0.0 --- 0.00 29.821
12/04/2005 4:40 a 27.2 27.2 27.2 27.2 27.2 89 24.4 0.0 1.0 --- 0.00 29.815
12/04/2005 4:50 a 27.2 27.2 27.2 27.2 27.1 89 24.4 0.0 0.0 --- 0.00 29.805
12/04/2005 5:00 a 27.1 27.1 27.1 27.2 27.1 90 24.6 0.0 0.0 --- 0.00 29.804
12/04/2005 5:10 a 27.1 27.1 27.1 27.2 27.1 90 24.6 0.0 0.0 --- 0.00 29.798
12/04/2005 5:20 a 27.1 27.1 27.1 27.2 27.1 90 24.6 0.0 0.0 --- 0.00 29.791
12/04/2005 5:30 a 27.1 27.1 27.1 27.2 27.1 90 24.6 0.0 0.0 --- 0.00 29.784
12/04/2005 5:40 a 27.1 27.1 27.1 27.2 27.1 91 24.8 0.0 0.0 --- 0.00 29.778
12/04/2005 5:50 a 27.2 27.2 27.2 27.2 27.1 90 24.7 0.0 0.0 --- 0.00 29.774
12/04/2005 6:00 a 27.2 27.2 27.2 27.2 27.1 91 24.9 0.0 0.0 --- 0.00 29.771
12/04/2005 6:10 a 27.2 27.2 27.2 27.3 27.2 91 24.9 0.0 0.0 --- 0.00 29.762
12/04/2005 6:20 a 27.2 27.2 27.2 27.3 27.2 91 24.9 0.0 0.0 --- 0.00 29.758
12/04/2005 6:30 a 27.3 27.3 27.3 27.3 27.2 91 25.0 0.0 0.0 --- 0.00 29.754
12/04/2005 6:40 a 27.3 27.3 27.3 27.3 27.3 91 25.0 0.0 0.0 --- 0.00 29.749
12/04/2005 6:50 a 27.3 27.3 27.3 27.4 27.3 91 25.0 0.0 0.0 --- 0.00 29.746
12/04/2005 7:00 a 27.4 27.4 27.4 27.4 27.4 91 25.1 0.0 0.0 --- 0.00 29.743
12/04/2005 7:10 a 27.5 27.5 27.5 27.5 27.4 92 25.5 0.0 0.0 --- 0.00 29.734
12/04/2005 7:20 a 27.5 27.5 27.5 27.5 27.5 92 25.5 0.0 0.0 --- 0.00 29.720
12/04/2005 7:30 a 27.6 27.6 27.6 27.6 27.5 92 25.6 0.0 0.0 --- 0.00 29.724
12/04/2005 7:40 a 27.7 27.7 27.7 27.7 27.6 92 25.7 0.0 0.0 --- 0.00 29.724
12/04/2005 7:50 a 27.8 27.8 27.8 27.9 27.7 92 25.8 0.0 0.0 --- 0.00 29.711
12/04/2005 8:00 a 27.9 27.9 27.9 28.0 27.9 92 25.9 0.0 0.0 --- 0.00 29.702
12/04/2005 8:10 a 28.1 28.1 28.1 28.2 28.0 92 26.1 0.0 0.0 --- 0.00 29.703
12/04/2005 8:20 a 28.2 28.2 28.2 28.3 28.2 92 26.2 0.0 0.0 --- 0.00 29.705
12/04/2005 8:30 a 28.3 28.3 28.3 28.4 28.3 92 26.3 0.0 0.0 --- 0.00 29.696
12/04/2005 8:40 a 28.5 28.5 28.5 28.5 28.4 92 26.5 0.0 0.0 --- 0.00 29.681
12/04/2005 8:50 a 28.5 28.5 28.5 28.6 28.5 92 26.5 0.0 0.0 --- 0.00 29.681
12/04/2005 9:00 a 28.7 28.7 28.7 28.9 28.6 93 26.9 0.0 2.0 SSW 0.00 29.682
12/04/2005 9:10 a 29.0 29.0 29.0 29.2 28.9 93 27.2 0.0 0.0 --- 0.00 29.677
12/04/2005 9:20 a 29.3 29.3 29.3 29.3 29.2 93 27.5 0.0 0.0 --- 0.00 29.670
12/04/2005 9:30 a 29.4 29.4 29.4 29.4 29.3 93 27.6 0.0 2.0 WSW 0.00 29.669
12/04/2005 9:40 a 29.5 29.5 29.5 29.6 29.4 93 27.7 0.0 2.0 W 0.00 29.663
12/04/2005 9:50 a 29.6 29.6 29.6 29.7 29.5 93 27.8 0.0 2.0 W 0.00 29.665
12/04/2005 10:00 a 29.7 29.7 29.7 29.8 29.6 93 27.9 0.0 1.0 --- 0.00 29.659
12/04/2005 10:10 a 29.8 29.8 29.8 29.9 29.8 93 28.0 0.0 0.0 --- 0.00 29.660
12/04/2005 10:20 a 29.9 29.9 29.9 30.0 29.9 93 28.1 0.0 2.0 W 0.00 29.651
12/04/2005 10:30 a 30.1 30.1 30.1 30.2 30.0 93 28.3 0.0 0.0 --- 0.00 29.648
12/04/2005 10:40 a 30.3 30.3 30.3 30.4 30.2 93 28.5 0.0 0.0 --- 0.00 29.644
12/04/2005 10:50 a 30.5 30.5 30.5 30.6 30.3 93 28.7 0.0 0.0 --- 0.00 29.637
12/04/2005 11:00 a 30.7 30.7 30.7 30.8 30.5 93 28.9 0.0 0.0 --- 0.00 29.637
12/04/2005 11:10 a 30.7 30.7 30.7 30.8 30.7 93 28.9 0.0 0.0 --- 0.00 29.634
12/04/2005 11:20 a 30.8 30.8 30.8 30.9 30.8 93 29.0 0.0 1.0 W 0.00 29.631
12/04/2005 11:30 a 31.0 31.0 31.0 31.0 30.9 93 29.2 0.0 0.0 --- 0.00 29.627
12/04/2005 11:40 a 31.0 31.0 31.0 31.1 31.0 93 29.2 0.0 0.0 --- 0.00 29.623
12/04/2005 11:50 a 31.2 31.2 31.2 31.3 31.1 93 29.4 0.0 0.0 --- 0.00 29.621
12/04/2005 12:00 p 31.4 31.4 31.4 31.5 31.3 93 29.6 0.0 0.0 --- 0.00 29.619
12/04/2005 12:10 p 31.6 31.6 31.6 31.8 31.5 94 30.1 0.0 1.0 W 0.00 29.622
12/04/2005 12:20 p 31.8 31.8 31.8 31.9 31.7 93 30.0 0.0 1.0 WSW 0.00 29.623
12/04/2005 12:30 p 31.9 31.9 31.9 31.9 31.9 93 30.1 0.0 3.0 S 0.00 29.632
12/04/2005 12:40 p 31.9 31.9 31.9 32.0 31.9 93 30.1 0.0 3.0 SSE 0.00 29.635
12/04/2005 12:50 p 32.1 32.1 32.1 32.2 32.0 93 30.3 0.0 2.0 SSE 0.00 29.638
12/04/2005 1:00 p 32.1 32.1 32.1 32.2 32.0 92 30.0 0.0 1.0 SSE 0.00 29.628
12/04/2005 1:10 p 32.0 32.0 32.0 32.1 31.9 92 29.9 0.0 2.0 SSE 0.00 29.635
12/04/2005 1:20 p 31.8 31.8 31.8 32.0 31.8 92 29.7 0.0 2.0 SSE 0.00 29.632
12/04/2005 1:30 p 31.8 31.8 31.8 31.8 31.7 92 29.7 0.0 2.0 SSE 0.00 29.626
12/04/2005 1:40 p 31.9 31.9 31.9 32.1 31.8 92 29.8 0.0 2.0 SSE 0.00 29.634
12/04/2005 1:50 p 32.1 32.1 32.1 32.2 32.1 91 29.8 0.0 0.0 --- 0.00 29.631
12/04/2005 2:00 p 32.2 32.2 32.2 32.4 32.2 91 29.9 0.0 2.0 SSE 0.00 29.631
12/04/2005 2:10 p 32.4 32.4 32.4 32.5 32.3 91 30.1 0.0 0.0 --- 0.00 29.634
12/04/2005 2:20 p 32.6 32.6 32.6 32.6 32.5 91 30.3 0.0 0.0 --- 0.00 29.634
12/04/2005 2:30 p 32.7 32.7 32.7 33.0 32.6 91 30.4 0.0 0.0 --- 0.00 29.643
12/04/2005 2:40 p 33.0 33.0 33.0 33.1 32.9 91 30.7 0.0 2.0 SSE 0.00 29.656
12/04/2005 2:50 p 33.1 33.1 33.1 33.2 33.1 91 30.8 0.0 2.0 SSE 0.00 29.662
12/04/2005 3:00 p 33.2 33.2 33.2 33.2 33.2 92 31.1 0.0 0.0 --- 0.00 29.676
12/04/2005 3:10 p 33.3 33.3 33.3 33.3 33.2 91 31.0 0.0 2.0 SSE 0.00 29.686
12/04/2005 3:20 p 33.4 33.4 33.4 33.4 33.3 91 31.1 0.0 2.0 SSE 0.00 29.693
12/04/2005 3:30 p 33.5 33.5 33.5 33.5 33.4 91 31.2 0.0 2.0 SSE 0.00 29.696
12/04/2005 3:40 p 33.5 33.5 33.5 33.6 33.5 91 31.2 0.0 1.0 SSE 0.00 29.701
12/04/2005 3:50 p 33.6 33.6 33.6 33.6 33.5 91 31.3 0.0 2.0 SSE 0.00 29.707
12/04/2005 4:00 p 33.6 33.6 33.6 33.6 33.5 91 31.3 0.0 3.0 SSE 0.00 29.709
12/04/2005 4:10 p 33.5 33.5 33.5 33.6 33.5 91 31.2 0.0 0.0 --- 0.00 29.715
12/04/2005 4:20 p 33.5 33.5 33.5 33.5 33.4 90 30.9 1.0 4.0 SE 0.00 29.729
12/04/2005 4:30 p 33.4 33.4 33.4 33.4 33.3 88 30.2 2.0 7.0 SE 0.00 29.735
12/04/2005 4:40 p 33.4 33.4 33.4 33.4 33.3 87 30.0 2.0 7.0 SE 0.00 29.741
12/04/2005 4:50 p 33.4 33.4 33.4 33.4 33.3 89 30.5 0.0 2.0 SSE 0.00 29.747
12/04/2005 5:00 p 33.3 33.3 33.3 33.4 33.2 89 30.4 0.0 1.0 SSE 0.00 29.760
12/04/2005 5:10 p 33.2 33.2 33.2 33.3 33.1 89 30.3 0.0 1.0 SSE 0.00 29.777
12/04/2005 5:20 p 33.1 33.1 33.1 33.2 33.1 89 30.2 0.0 0.0 --- 0.00 29.786
12/04/2005 5:30 p 33.0 33.0 33.0 33.1 32.9 89 30.1 0.0 0.0 --- 0.00 29.794
12/04/2005 5:40 p 32.7 32.7 32.7 32.9 32.5 89 29.8 0.0 0.0 --- 0.00 29.788
12/04/2005 5:50 p 32.4 32.4 32.4 32.6 32.1 89 29.5 0.0 0.0 --- 0.00 29.793
12/04/2005 6:00 p 32.0 32.0 32.0 32.2 31.8 90 29.4 0.0 0.0 --- 0.00 29.798
12/04/2005 6:10 p 31.7 31.7 31.7 31.8 31.5 91 29.4 0.0 0.0 --- 0.00 29.810
12/04/2005 6:20 p 31.4 31.4 31.4 31.5 31.3 91 29.1 0.0 0.0 --- 0.00 29.819
12/04/2005 6:30 p 31.2 31.2 31.2 31.3 31.1 91 28.9 0.0 0.0 --- 0.00 29.827
12/04/2005 6:40 p 31.0 31.0 31.0 31.1 30.9 92 29.0 0.0 0.0 --- 0.00 29.836
12/04/2005 6:50 p 30.8 30.8 30.8 30.9 30.6 92 28.8 0.0 2.0 SSE 0.00 29.844
12/04/2005 7:00 p 30.6 30.6 30.6 30.7 30.5 92 28.6 0.0 0.0 --- 0.00 29.848
12/04/2005 7:10 p 30.5 30.5 30.5 30.6 30.5 92 28.5 0.0 0.0 --- 0.00 29.861
12/04/2005 7:20 p 30.5 30.5 30.5 30.5 30.4 91 28.2 0.0 0.0 --- 0.00 29.873
12/04/2005 7:30 p 30.3 30.3 30.3 30.4 30.2 91 28.0 0.0 0.0 --- 0.00 29.875
12/04/2005 7:40 p 30.2 30.2 30.2 30.2 30.1 91 27.9 0.0 0.0 --- 0.00 29.878
12/04/2005 7:50 p 30.0 30.0 30.0 30.1 29.9 91 27.7 0.0 0.0 --- 0.00 29.886
12/04/2005 8:00 p 29.8 29.8 29.8 29.9 29.6 91 27.5 0.0 0.0 --- 0.00 29.890
12/04/2005 8:10 p 29.5 29.5 29.5 29.6 29.3 91 27.2 0.0 0.0 --- 0.00 29.895
12/04/2005 8:20 p 29.3 29.3 29.3 29.4 29.2 91 27.0 0.0 0.0 --- 0.00 29.907
12/04/2005 8:30 p 29.1 29.1 29.1 29.2 29.1 91 26.8 0.0 1.0 SSE 0.00 29.909
12/04/2005 8:40 p 29.1 29.1 29.1 29.2 29.1 91 26.8 0.0 0.0 --- 0.00 29.910
12/04/2005 8:50 p 29.1 29.1 29.1 29.1 29.0 91 26.8 0.0 0.0 --- 0.00 29.911
12/04/2005 9:00 p 28.9 28.9 28.9 29.0 28.7 90 26.3 0.0 0.0 --- 0.00 29.907
12/04/2005 9:10 p 28.6 28.6 28.6 28.7 28.5 90 26.0 0.0 0.0 --- 0.00 29.909
12/04/2005 9:20 p 28.3 28.3 28.3 28.5 28.2 90 25.7 0.0 0.0 --- 0.00 29.908
12/04/2005 9:30 p 28.0 28.0 28.0 28.2 27.8 90 25.5 0.0 0.0 --- 0.00 29.906
12/04/2005 9:40 p 27.7 27.7 27.7 27.8 27.6 90 25.2 0.0 0.0 --- 0.00 29.912
12/04/2005 9:50 p 27.5 27.5 27.5 27.6 27.3 90 25.0 0.0 0.0 --- 0.00 29.917
12/04/2005 10:00 p 27.1 27.1 27.1 27.3 26.9 90 24.6 0.0 0.0 --- 0.00 29.922
12/04/2005 10:10 p 26.8 26.8 26.8 27.0 26.6 90 24.3 0.0 0.0 --- 0.00 29.921
12/04/2005 10:20 p 26.5 26.5 26.5 26.6 26.4 90 24.0 0.0 0.0 --- 0.00 29.928
12/04/2005 10:30 p 26.3 26.3 26.3 26.4 26.3 91 24.0 0.0 0.0 --- 0.00 29.930
12/04/2005 10:40 p 26.2 26.2 26.2 26.3 26.1 92 24.2 0.0 0.0 --- 0.00 29.931
12/04/2005 10:50 p 26.1 26.1 26.1 26.2 26.1 92 24.1 0.0 0.0 --- 0.00 29.934
12/04/2005 11:00 p 26.1 26.1 26.1 26.2 25.9 92 24.1 0.0 0.0 --- 0.00 29.936
12/04/2005 11:10 p 25.9 25.9 25.9 26.0 25.8 92 23.9 0.0 0.0 --- 0.00 29.938
12/04/2005 11:20 p 25.7 25.7 25.7 25.8 25.7 92 23.7 0.0 0.0 --- 0.00 29.945
12/04/2005 11:30 p 25.8 25.8 25.8 25.8 25.7 92 23.8 0.0 0.0 --- 0.00 29.947
12/04/2005 11:40 p 25.8 25.8 25.8 25.9 25.8 93 24.1 0.0 0.0 --- 0.00 29.950
12/04/2005 11:50 p 26.0 26.0 26.0 26.1 25.8 93 24.3 0.0 0.0 --- 0.00 29.954
12/05/2005 12:00 a 25.8 25.8 25.8 26.1 25.4 91 23.5 0.0 0.0 --- 0.00 29.956
12/05/2005 12:10 a 25.1 25.1 25.1 25.4 24.9 91 22.8 0.0 0.0 --- 0.00 29.957
12/05/2005 12:20 a 24.9 24.9 24.9 25.0 24.9 92 22.9 0.0 0.0 --- 0.00 29.962
12/05/2005 12:30 a 25.1 25.1 25.1 25.2 25.0 92 23.1 0.0 0.0 --- 0.00 29.967
12/05/2005 12:40 a 25.3 25.3 25.3 25.4 25.2 93 23.6 0.0 0.0 --- 0.00 29.964
12/05/2005 12:50 a 25.3 25.3 25.3 25.4 25.3 93 23.6 0.0 0.0 --- 0.00 29.964
12/05/2005 1:00 a 25.4 25.4 25.4 25.4 25.3 92 23.4 0.0 0.0 --- 0.00 29.961
12/05/2005 1:10 a 25.4 25.4 25.4 25.4 25.3 92 23.4 0.0 0.0 --- 0.00 29.965
12/05/2005 1:20 a 25.3 25.3 25.3 25.4 25.2 92 23.3 0.0 0.0 --- 0.00 29.980
12/05/2005 1:30 a 25.3 25.3 25.3 25.3 25.2 93 23.6 0.0 0.0 --- 0.00 29.977
12/05/2005 1:40 a 25.4 25.4 25.4 25.5 25.3 93 23.7 0.0 0.0 --- 0.00 29.979
12/05/2005 1:50 a 25.7 25.7 25.7 25.8 25.5 93 24.0 0.0 0.0 --- 0.00 29.983
12/05/2005 2:00 a 25.6 25.6 25.6 25.8 25.4 92 23.6 0.0 0.0 --- 0.00 29.984
12/05/2005 2:10 a 25.3 25.3 25.3 25.4 25.1 92 23.3 0.0 0.0 --- 0.00 29.985
12/05/2005 2:20 a 24.9 24.9 24.9 25.1 24.8 92 22.9 0.0 0.0 --- 0.00 29.992
12/05/2005 2:30 a 24.7 24.7 24.7 24.8 24.6 92 22.7 0.0 0.0 --- 0.00 29.999
12/05/2005 2:40 a 24.7 24.7 24.7 24.8 24.6 93 23.0 0.0 0.0 --- 0.00 29.998
12/05/2005 2:50 a 24.7 24.7 24.7 24.7 24.6 92 22.7 0.0 0.0 --- 0.00 29.998
12/05/2005 3:00 a 24.6 24.6 24.6 24.6 24.6 92 22.6 0.0 0.0 --- 0.00 30.001
12/05/2005 3:10 a 24.5 24.5 24.5 24.6 24.5 92 22.5 0.0 0.0 --- 0.00 30.007
12/05/2005 3:20 a 24.4 24.4 24.4 24.5 24.4 92 22.4 0.0 0.0 --- 0.00 30.012
12/05/2005 3:30 a 24.3 24.3 24.3 24.4 24.3 92 22.3 0.0 0.0 --- 0.00 30.015
12/05/2005 3:40 a 24.4 24.4 24.4 24.4 24.3 93 22.7 0.0 0.0 --- 0.00 30.013
12/05/2005 3:50 a 24.5 24.5 24.5 24.5 24.4 92 22.5 0.0 0.0 --- 0.00 30.012
12/05/2005 4:00 a 24.5 24.5 24.5 24.5 24.4 93 22.8 0.0 0.0 --- 0.00 30.017
12/05/2005 4:10 a 24.5 24.5 24.5 24.5 24.5 92 22.5 0.0 0.0 --- 0.00 30.024
12/05/2005 4:20 a 24.5 24.5 24.5 24.5 24.5 93 22.8 0.0 0.0 --- 0.00 30.019
12/05/2005 4:30 a 24.5 24.5 24.5 24.6 24.5 92 22.5 0.0 0.0 --- 0.00 30.023
12/05/2005 4:40 a 24.7 24.7 24.7 24.9 24.6 93 23.0 0.0 0.0 --- 0.00 30.024
12/05/2005 4:50 a 25.1 25.1 25.1 25.3 24.9 94 23.6 0.0 0.0 --- 0.00 30.026
12/05/2005 5:00 a 25.4 25.4 25.4 25.4 25.3 93 23.7 0.0 0.0 --- 0.00 30.023
12/05/2005 5:10 a 25.3 25.3 25.3 25.4 25.2 93 23.6 0.0 0.0 --- 0.00 30.028
12/05/2005 5:20 a 25.2 25.2 25.2 25.3 25.2 93 23.5 0.0 0.0 --- 0.00 30.025
12/05/2005 5:30 a 25.3 25.3 25.3 25.3 25.2 93 23.6 0.0 0.0 --- 0.00 30.026
12/05/2005 5:40 a 25.4 25.4 25.4 25.5 25.3 93 23.7 0.0 0.0 --- 0.00 30.030
12/05/2005 5:50 a 25.6 25.6 25.6 25.7 25.5 93 23.9 0.0 0.0 --- 0.00 30.036
12/05/2005 6:00 a 25.7 25.7 25.7 25.7 25.7 93 24.0 0.0 0.0 --- 0.00 30.037
12/05/2005 6:10 a 25.7 25.7 25.7 25.8 25.7 93 24.0 0.0 0.0 --- 0.00 30.034
12/05/2005 6:20 a 25.7 25.7 25.7 25.8 25.7 93 24.0 0.0 0.0 --- 0.00 30.038
12/05/2005 6:30 a 25.7 25.7 25.7 25.7 25.5 92 23.7 0.0 0.0 --- 0.00 30.044
12/05/2005 6:40 a 25.4 25.4 25.4 25.6 25.3 92 23.4 0.0 0.0 --- 0.00 30.049
12/05/2005 6:50 a 25.4 25.4 25.4 25.4 25.3 92 23.4 0.0 0.0 --- 0.00 30.051
12/05/2005 7:00 a 25.3 25.3 25.3 25.4 25.3 93 23.6 0.0 0.0 --- 0.00 30.046
12/05/2005 7:10 a 25.4 25.4 25.4 25.5 25.3 92 23.4 0.0 0.0 --- 0.00 30.053
12/05/2005 7:20 a 25.3 25.3 25.3 25.3 25.2 93 23.6 0.0 0.0 --- 0.00 30.054
12/05/2005 7:30 a 25.3 25.3 25.3 25.3 25.2 92 23.3 0.0 0.0 --- 0.00 30.052
12/05/2005 7:40 a 25.1 25.1 25.1 25.2 25.0 92 23.1 0.0 0.0 --- 0.00 30.061
12/05/2005 7:50 a 25.0 25.0 25.0 25.0 24.9 92 23.0 0.0 0.0 --- 0.00 30.062
12/05/2005 8:00 a 25.0 25.0 25.0 25.1 24.9 92 23.0 0.0 0.0 --- 0.00 30.067
12/05/2005 8:10 a 25.1 25.1 25.1 25.2 25.0 92 23.1 0.0 0.0 --- 0.00 30.070
12/05/2005 8:20 a 25.2 25.2 25.2 25.2 25.1 92 23.2 0.0 0.0 --- 0.00 30.066
12/05/2005 8:30 a 25.3 25.3 25.3 25.6 25.2 93 23.6 0.0 0.0 --- 0.00 30.071
12/05/2005 8:40 a 25.7 25.7 25.7 25.9 25.6 93 24.0 0.0 0.0 --- 0.00 30.075
12/05/2005 8:50 a 26.0 26.0 26.0 26.2 25.9 93 24.3 0.0 0.0 --- 0.00 30.077
12/05/2005 9:00 a 26.4 26.4 26.4 26.6 26.2 93 24.7 0.0 0.0 --- 0.00 30.077
12/05/2005 9:10 a 26.8 26.8 26.8 27.0 26.5 93 25.1 0.0 0.0 --- 0.00 30.081
12/05/2005 9:20 a 27.2 27.2 27.2 27.5 27.0 93 25.4 0.0 0.0 --- 0.00 30.082
12/05/2005 9:30 a 27.8 27.8 27.8 28.2 27.5 93 26.0 0.0 0.0 --- 0.00 30.088
12/05/2005 9:40 a 28.5 28.5 28.5 28.9 28.2 93 26.7 0.0 0.0 --- 0.00 30.088
12/05/2005 9:50 a 29.3 29.3 29.3 29.6 28.9 92 27.3 0.0 0.0 --- 0.00 30.086
12/05/2005 10:00 a 30.0 30.0 30.0 30.3 29.6 88 26.9 0.0 0.0 --- 0.00 30.087
12/05/2005 10:10 a 30.7 30.7 30.7 31.1 30.3 84 26.4 0.0 0.0 --- 0.00 30.086
12/05/2005 10:20 a 31.5 31.5 31.5 31.9 31.1 82 26.6 0.0 0.0 --- 0.00 30.088
12/05/2005 10:30 a 32.1 32.1 32.1 32.4 31.9 79 26.3 0.0 2.0 SSE 0.00 30.085
12/05/2005 10:40 a 32.6 32.6 32.6 32.9 32.4 76 25.9 0.0 0.0 --- 0.00 30.077
12/05/2005 10:50 a 33.2 33.2 33.2 33.3 32.9 74 25.8 0.0 1.0 SSE 0.00 30.067
12/05/2005 11:00 a 33.5 33.5 33.5 33.6 33.3 75 26.4 0.0 1.0 SSE 0.00 30.081
12/05/2005 11:10 a 33.7 33.7 33.7 33.8 33.6 74 26.3 0.0 0.0 --- 0.00 30.081
12/05/2005 11:20 a 33.9 33.9 33.9 33.9 33.8 72 25.8 0.0 0.0 --- 0.00 30.078
12/05/2005 11:30 a 34.0 34.0 34.0 34.1 33.9 72 25.9 0.0 0.0 --- 0.00 30.061
12/05/2005 11:40 a 34.2 34.2 34.2 34.2 34.1 70 25.5 0.0 0.0 --- 0.00 30.062
12/05/2005 11:50 a 34.3 34.3 34.3 34.4 34.2 69 25.2 0.0 0.0 --- 0.00 30.056
12/05/2005 12:00 p 34.4 34.4 34.4 34.5 34.3 66 24.2 0.0 3.0 SSE 0.00 30.045
12/05/2005 12:10 p 34.3 34.3 34.3 34.4 34.2 66 24.1 0.0 3.0 SE 0.00 30.027
12/05/2005 12:20 p 34.1 34.1 34.1 34.2 34.1 66 23.9 0.0 2.0 SE 0.00 30.026
12/05/2005 12:30 p 34.1 34.1 34.1 34.1 34.1 65 23.6 0.0 3.0 SE 0.00 30.025
12/05/2005 12:40 p 34.1 34.1 34.1 34.2 34.1 66 23.9 0.0 0.0 --- 0.00 30.022
12/05/2005 12:50 p 34.2 34.2 34.2 34.3 34.2 68 24.8 0.0 0.0 --- 0.00 30.020
12/05/2005 1:00 p 34.3 34.3 34.3 34.3 34.2 65 23.8 0.0 1.0 SE 0.00 30.015
12/05/2005 1:10 p 34.1 34.1 34.1 34.2 34.0 66 23.9 0.0 2.0 SE 0.00 30.007
12/05/2005 1:20 p 34.0 34.0 34.0 34.0 33.9 66 23.9 0.0 0.0 --- 0.00 30.006
12/05/2005 1:30 p 34.0 34.0 34.0 34.0 34.0 68 24.6 0.0 0.0 --- 0.00 30.002
12/05/2005 1:40 p 34.0 34.0 34.0 34.0 33.9 65 23.5 0.0 1.0 SE 0.00 29.999
12/05/2005 1:50 p 33.9 33.9 33.9 34.0 33.9 66 23.8 0.0 1.0 SE 0.00 29.996
12/05/2005 2:00 p 33.8 33.8 33.8 33.9 33.7 67 24.0 0.0 0.0 --- 0.00 29.981
12/05/2005 2:10 p 33.7 33.7 33.7 33.8 33.6 65 23.2 0.0 0.0 --- 0.00 29.975
12/05/2005 2:20 p 33.6 33.6 33.6 33.7 33.5 66 23.5 0.0 1.0 SE 0.00 29.969
12/05/2005 2:30 p 33.5 33.5 33.5 33.5 33.4 67 23.7 0.0 1.0 SE 0.00 29.973
12/05/2005 2:40 p 33.5 33.5 33.5 33.5 33.4 68 24.1 0.0 0.0 --- 0.00 29.958
12/05/2005 2:50 p 33.4 33.4 33.4 33.5 33.4 68 24.0 0.0 0.0 --- 0.00 29.969
12/05/2005 3:00 p 33.5 33.5 33.5 33.5 33.4 73 25.8 0.0 0.0 --- 0.00 29.976
12/05/2005 3:10 p 33.5 33.5 33.5 33.5 33.4 74 26.1 0.0 0.0 --- 0.00 29.990
12/05/2005 3:20 p 33.3 33.3 33.3 33.4 33.2 72 25.3 0.0 0.0 --- 0.00 29.979
12/05/2005 3:30 p 33.2 33.2 33.2 33.3 33.1 75 26.1 0.0 0.0 --- 0.00 29.989
12/05/2005 3:40 p 33.1 33.1 33.1 33.1 33.0 74 25.7 0.0 0.0 --- 0.00 29.978
12/05/2005 3:50 p 33.0 33.0 33.0 33.0 32.9 75 26.0 0.0 0.0 --- 0.00 29.990
12/05/2005 4:00 p 33.0 33.0 33.0 33.0 32.9 77 26.6 0.0 0.0 --- 0.00 29.995
12/05/2005 4:10 p 32.9 32.9 32.9 33.0 32.7 75 25.9 0.0 0.0 --- 0.00 29.994
12/05/2005 4:20 p 32.7 32.7 32.7 32.8 32.6 77 26.3 0.0 0.0 --- 0.00 29.995
12/05/2005 4:30 p 32.6 32.6 32.6 32.6 32.5 77 26.2 0.0 0.0 --- 0.00 30.004
12/05/2005 4:40 p 32.5 32.5 32.5 32.5 32.3 76 25.8 0.0 0.0 --- 0.00 29.987
12/05/2005 4:50 p 32.2 32.2 32.2 32.4 32.2 77 25.8 0.0 0.0 --- 0.00 29.986
12/05/2005 5:00 p 32.2 32.2 32.2 32.2 32.2 79 26.4 0.0 0.0 --- 0.00 29.988
12/05/2005 5:10 p 32.2 32.2 32.2 32.2 32.1 79 26.4 0.0 0.0 --- 0.00 29.995
12/05/2005 5:20 p 32.0 32.0 32.0 32.1 32.0 80 26.5 0.0 0.0 --- 0.00 29.994
12/05/2005 5:30 p 31.9 31.9 31.9 32.0 31.7 80 26.4 0.0 0.0 --- 0.00 29.996
12/05/2005 5:40 p 31.6 31.6 31.6 31.7 31.5 80 26.2 0.0 0.0 --- 0.00 29.992
12/05/2005 5:50 p 31.5 31.5 31.5 31.6 31.4 80 26.1 0.0 0.0 --- 0.00 29.978
12/05/2005 6:00 p 31.4 31.4 31.4 31.4 31.4 82 26.6 0.0 0.0 --- 0.00 29.981
12/05/2005 6:10 p 31.5 31.5 31.5 31.5 31.4 81 26.4 0.0 0.0 --- 0.00 29.977
12/05/2005 6:20 p 31.6 31.6 31.6 31.6 31.5 81 26.5 0.0 0.0 --- 0.00 29.969
12/05/2005 6:30 p 31.5 31.5 31.5 31.6 31.5 82 26.6 0.0 0.0 --- 0.00 29.966
12/05/2005 6:40 p 31.6 31.6 31.6 31.6 31.5 82 26.7 0.0 0.0 --- 0.00 29.972
12/05/2005 6:50 p 31.6 31.6 31.6 31.7 31.5 83 27.0 0.0 0.0 --- 0.00 29.963
12/05/2005 7:00 p 31.6 31.6 31.6 31.7 31.6 84 27.3 0.0 0.0 --- 0.00 29.970
12/05/2005 7:10 p 31.6 31.6 31.6 31.6 31.5 83 27.0 0.0 0.0 --- 0.00 29.963
12/05/2005 7:20 p 31.5 31.5 31.5 31.6 31.5 84 27.2 0.0 0.0 --- 0.00 29.971
12/05/2005 7:30 p 31.4 31.4 31.4 31.5 31.4 83 26.8 0.0 0.0 --- 0.00 29.966
12/05/2005 7:40 p 31.3 31.3 31.3 31.4 31.3 83 26.7 0.0 0.0 --- 0.00 29.961
12/05/2005 7:50 p 31.4 31.4 31.4 31.5 31.3 84 27.1 0.0 0.0 --- 0.00 29.967
12/05/2005 8:00 p 31.6 31.6 31.6 31.7 31.5 84 27.3 0.0 0.0 --- 0.00 29.960
12/05/2005 8:10 p 31.6 31.6 31.6 31.6 31.5 85 27.6 0.0 0.0 --- 0.00 29.964
12/05/2005 8:20 p 31.6 31.6 31.6 31.6 31.6 82 26.7 0.0 0.0 --- 0.00 29.955
12/05/2005 8:30 p 31.7 31.7 31.7 31.8 31.6 82 26.8 0.0 0.0 --- 0.00 29.950
12/05/2005 8:40 p 31.7 31.7 31.7 31.8 31.6 83 27.1 0.0 0.0 --- 0.00 29.940
12/05/2005 8:50 p 31.4 31.4 31.4 31.6 31.3 83 26.8 0.0 0.0 --- 0.00 29.937
12/05/2005 9:00 p 31.1 31.1 31.1 31.3 31.0 84 26.8 0.0 0.0 --- 0.00 29.934
12/05/2005 9:10 p 30.9 30.9 30.9 31.0 30.8 85 26.9 0.0 0.0 --- 0.00 29.931
12/05/2005 9:20 p 30.7 30.7 30.7 30.8 30.6 86 27.0 0.0 0.0 --- 0.00 29.930
12/05/2005 9:30 p 30.5 30.5 30.5 30.6 30.4 86 26.8 0.0 0.0 --- 0.00 29.921
12/05/2005 9:40 p 30.4 30.4 30.4 30.4 30.3 87 27.0 0.0 0.0 --- 0.00 29.927
12/05/2005 9:50 p 30.4 30.4 30.4 30.4 30.3 87 27.0 0.0 0.0 --- 0.00 29.917
12/05/2005 10:00 p 30.4 30.4 30.4 30.4 30.3 87 27.0 0.0 0.0 --- 0.00 29.912
12/05/2005 10:10 p 30.4 30.4 30.4 30.4 30.3 88 27.3 0.0 0.0 --- 0.00 29.905
12/05/2005 10:20 p 30.3 30.3 30.3 30.4 30.3 88 27.2 0.0 0.0 --- 0.00 29.906
12/05/2005 10:30 p 30.3 30.3 30.3 30.3 30.3 88 27.2 0.0 0.0 --- 0.00 29.905
12/05/2005 10:40 p 30.3 30.3 30.3 30.3 30.3 87 26.9 0.0 0.0 --- 0.00 29.905
12/05/2005 10:50 p 30.3 30.3 30.3 30.4 30.3 88 27.2 0.0 0.0 --- 0.00 29.893
12/05/2005 11:00 p 30.4 30.4 30.4 30.4 30.3 88 27.3 0.0 0.0 --- 0.00 29.892
12/05/2005 11:10 p 30.4 30.4 30.4 30.4 30.4 88 27.3 0.0 0.0 --- 0.00 29.889
12/05/2005 11:20 p 30.4 30.4 30.4 30.5 30.4 89 27.6 0.0 0.0 --- 0.00 29.887
12/05/2005 11:30 p 30.5 30.5 30.5 30.5 30.4 89 27.7 0.0 0.0 --- 0.00 29.881
12/05/2005 11:40 p 30.5 30.5 30.5 30.5 30.5 89 27.7 0.0 0.0 --- 0.00 29.873
12/05/2005 11:50 p 30.5 30.5 30.5 30.5 30.4 89 27.7 0.0 0.0 --- 0.00 29.866
12/06/2005 12:00 a 30.5 30.5 30.5 30.6 30.5 88 27.4 0.0 0.0 --- 0.00 29.859
12/06/2005 12:10 a 30.5 30.5 30.5 30.6 30.5 87 27.1 0.0 0.0 --- 0.00 29.849
12/06/2005 12:20 a 30.5 30.5 30.5 30.5 30.4 87 27.1 0.0 0.0 --- 0.00 29.839
12/06/2005 12:30 a 30.5 30.5 30.5 30.5 30.4 87 27.1 0.0 0.0 --- 0.00 29.841
12/06/2005 12:40 a 30.6 30.6 30.6 30.6 30.5 88 27.5 0.0 0.0 --- 0.00 29.850
12/06/2005 12:50 a 30.6 30.6 30.6 30.6 30.6 88 27.5 0.0 0.0 --- 0.00 29.840
12/06/2005 1:00 a 30.6 30.6 30.6 30.6 30.6 88 27.5 0.0 0.0 --- 0.00 29.818
12/06/2005 1:10 a 30.6 30.6 30.6 30.7 30.6 89 27.7 0.0 0.0 --- 0.00 29.829
12/06/2005 1:20 a 30.6 30.6 30.6 30.7 30.6 89 27.7 0.0 0.0 --- 0.00 29.823
12/06/2005 1:30 a 30.7 30.7 30.7 30.7 30.6 89 27.8 0.0 0.0 --- 0.00 29.825
12/06/2005 1:40 a 30.6 30.6 30.6 30.7 30.6 90 28.0 0.0 0.0 --- 0.00 29.827
12/06/2005 1:50 a 30.6 30.6 30.6 30.7 30.6 90 28.0 0.0 0.0 --- 0.00 29.827
12/06/2005 2:00 a 30.7 30.7 30.7 30.7 30.6 90 28.1 0.0 0.0 --- 0.00 29.824
12/06/2005 2:10 a 30.8 30.8 30.8 30.8 30.7 87 27.4 0.0 0.0 --- 0.00 29.826
12/06/2005 2:20 a 31.0 31.0 31.0 31.1 30.8 84 26.7 0.0 0.0 --- 0.00 29.818
12/06/2005 2:30 a 31.2 31.2 31.2 31.3 31.1 83 26.6 0.0 3.0 SE 0.00 29.819
12/06/2005 2:40 a 31.4 31.4 31.4 31.5 31.2 82 26.6 0.0 2.0 SSW 0.00 29.828
12/06/2005 2:50 a 31.6 31.6 31.6 31.6 31.5 82 26.7 0.0 0.0 --- 0.00 29.824
12/06/2005 3:00 a 31.6 31.6 31.6 31.6 31.5 84 27.3 0.0 0.0 --- 0.00 29.828
12/06/2005 3:10 a 31.5 31.5 31.5 31.6 31.5 82 26.6 0.0 0.0 --- 0.00 29.824
12/06/2005 3:20 a 31.4 31.4 31.4 31.5 31.3 81 26.3 0.0 2.0 SSW 0.00 29.828
12/06/2005 3:30 a 31.3 31.3 31.3 31.4 31.2 81 26.2 0.0 2.0 SSW 0.00 29.820
12/06/2005 3:40 a 31.3 31.3 31.3 31.3 31.2 80 25.9 1.0 3.0 SSE 0.00 29.827
12/06/2005 3:50 a 31.3 31.3 31.3 31.4 31.3 81 26.2 0.0 0.0 --- 0.00 29.818
12/06/2005 4:00 a 31.3 31.3 31.3 31.4 31.3 81 26.2 0.0 0.0 --- 0.00 29.821
12/06/2005 4:10 a 31.3 31.3 31.3 31.3 31.2 82 26.5 0.0 0.0 --- 0.00 29.820
12/06/2005 4:20 a 31.3 31.3 31.3 31.3 31.2 83 26.7 0.0 2.0 SSE 0.00 29.820
12/06/2005 4:30 a 31.2 31.2 31.2 31.2 31.1 84 26.9 0.0 2.0 SSE 0.00 29.824
12/06/2005 4:40 a 31.1 31.1 31.1 31.1 31.0 84 26.8 0.0 0.0 --- 0.00 29.820
12/06/2005 4:50 a 30.9 30.9 30.9 31.0 30.8 85 26.9 0.0 0.0 --- 0.00 29.825
12/06/2005 5:00 a 30.7 30.7 30.7 30.8 30.6 85 26.7 0.0 2.0 SSE 0.00 29.829
12/06/2005 5:10 a 30.5 30.5 30.5 30.6 30.4 87 27.1 0.0 1.0 SSE 0.00 29.825
12/06/2005 5:20 a 30.3 30.3 30.3 30.4 30.2 87 26.9 0.0 1.0 SSE 0.00 29.832
12/06/2005 5:30 a 30.1 30.1 30.1 30.2 30.1 89 27.3 0.0 1.0 SSE 0.00 29.839
12/06/2005 5:40 a 30.1 30.1 30.1 30.2 30.1 89 27.3 0.0 2.0 SSE 0.00 29.844
12/06/2005 5:50 a 30.1 30.1 30.1 30.2 30.0 89 27.3 0.0 0.0 --- 0.00 29.849
12/06/2005 6:00 a 30.1 30.1 30.1 30.2 30.0 89 27.3 0.0 0.0 --- 0.00 29.847
12/06/2005 6:10 a 30.1 30.1 30.1 30.1 30.0 90 27.5 0.0 0.0 --- 0.00 29.850
12/06/2005 6:20 a 30.1 30.1 30.1 30.1 30.0 90 27.5 0.0 0.0 --- 0.00 29.850
12/06/2005 6:30 a 30.0 30.0 30.0 30.0 30.0 91 27.7 0.0 2.0 SSE 0.00 29.859
12/06/2005 6:40 a 30.0 30.0 30.0 30.0 29.9 91 27.7 0.0 0.0 --- 0.00 29.858
12/06/2005 6:50 a 29.9 29.9 29.9 30.0 29.8 91 27.6 0.0 0.0 --- 0.00 29.855
12/06/2005 7:00 a 29.8 29.8 29.8 29.8 29.8 91 27.5 0.0 1.0 SSE 0.00 29.862
12/06/2005 7:10 a 29.8 29.8 29.8 29.8 29.7 92 27.8 0.0 2.0 SSE 0.00 29.868
12/06/2005 7:20 a 29.7 29.7 29.7 29.7 29.6 92 27.7 0.0 2.0 SSE 0.00 29.871
12/06/2005 7:30 a 29.6 29.6 29.6 29.7 29.5 92 27.6 0.0 0.0 --- 0.00 29.878
12/06/2005 7:40 a 29.8 29.8 29.8 29.8 29.7 91 27.5 0.0 0.0 --- 0.00 29.879
12/06/2005 7:50 a 29.7 29.7 29.7 29.8 29.6 90 27.1 0.0 0.0 --- 0.00 29.873
12/06/2005 8:00 a 29.5 29.5 29.5 29.6 29.4 90 26.9 0.0 0.0 --- 0.00 29.881
12/06/2005 8:10 a 29.4 29.4 29.4 29.5 29.2 90 26.8 0.0 0.0 --- 0.00 29.882
12/06/2005 8:20 a 29.0 29.0 29.0 29.2 28.9 90 26.4 0.0 0.0 --- 0.00 29.887
12/06/2005 8:30 a 28.7 28.7 28.7 28.9 28.6 90 26.1 0.0 0.0 --- 0.00 29.883
12/06/2005 8:40 a 28.7 28.7 28.7 28.9 28.6 90 26.1 0.0 0.0 --- 0.00 29.884
12/06/2005 8:50 a 29.3 29.3 29.3 30.0 28.8 89 26.5 0.0 0.0 --- 0.00 29.881
12/06/2005 9:00 a 30.8 30.8 30.8 31.3 30.0 87 27.4 0.0 0.0 --- 0.00 29.888
12/06/2005 9:10 a 31.4 31.4 31.4 31.6 31.3 85 27.4 0.0 1.0 SSE 0.00 29.890
12/06/2005 9:20 a 31.6 31.6 31.6 31.7 31.6 84 27.3 0.0 5.0 SSE 0.00 29.899
12/06/2005 9:30 a 31.7 31.7 31.7 31.7 31.6 82 26.8 0.0 4.0 ESE 0.00 29.898
12/06/2005 9:40 a 31.8 31.8 31.8 31.9 31.7 79 26.0 0.0 2.0 SE 0.00 29.902
12/06/2005 9:50 a 31.9 31.9 31.9 31.9 31.9 78 25.8 1.0 4.0 SE 0.00 29.909
12/06/2005 10:00 a 32.0 32.0 32.0 32.1 31.9 77 25.6 1.0 3.0 SE 0.00 29.908
12/06/2005 10:10 a 32.3 32.3 32.3 32.5 32.1 76 25.6 0.0 4.0 SE 0.00 29.915
12/06/2005 10:20 a 32.6 32.6 32.6 32.7 32.5 75 25.6 0.0 3.0 SE 0.00 29.915
12/06/2005 10:30 a 33.0 33.0 33.0 33.1 32.8 72 25.0 0.0 3.0 SSE 0.00 29.915
12/06/2005 10:40 a 33.3 33.3 33.3 33.4 33.1 70 24.6 1.0 3.0 SE 0.00 29.917
12/06/2005 10:50 a 33.5 33.5 33.5 33.7 33.4 69 24.4 1.0 6.0 SE 0.00 29.920
12/06/2005 11:00 a 33.7 33.7 33.7 33.8 33.7 69 24.6 1.0 5.0 SE 0.00 29.921
12/06/2005 11:10 a 33.9 33.9 33.9 34.0 33.7 69 24.8 1.0 6.0 SE 0.00 29.910
12/06/2005 11:20 a 34.1 34.1 34.1 34.2 34.0 68 24.7 2.0 6.0 SE 0.00 29.909
12/06/2005 11:30 a 34.4 34.4 34.4 34.7 34.2 68 24.9 1.0 5.0 SSE 0.00 29.903
12/06/2005 11:40 a 34.9 34.9 34.9 35.1 34.7 67 25.1 2.0 6.0 SE 0.00 29.901
12/06/2005 11:50 a 35.3 35.3 35.3 35.5 35.1 66 25.1 1.0 4.0 SE 0.00 29.898
12/06/2005 12:00 p 35.8 35.8 35.8 36.0 35.4 63 24.5 1.0 4.0 SE 0.00 29.899
12/06/2005 12:10 p 36.1 36.1 36.1 36.1 36.0 63 24.7 2.0 7.0 SE 0.00 29.903
12/06/2005 12:20 p 35.6 35.6 35.6 36.0 35.3 62 23.9 1.0 8.0 SE 0.00 29.903
12/06/2005 12:30 p 35.2 35.2 35.2 35.3 35.1 62 23.5 2.0 9.0 SE 0.00 29.906
12/06/2005 12:40 p 35.1 35.1 35.1 35.1 35.0 64 24.2 1.0 6.0 SE 0.00 29.907
12/06/2005 12:50 p 35.1 35.1 35.1 35.4 35.1 63 23.8 1.0 5.0 SE 0.00 29.905
12/06/2005 1:00 p 35.8 35.8 35.8 36.0 35.4 61 23.7 1.0 5.0 SE 0.00 29.901
12/06/2005 1:10 p 36.1 36.1 36.1 36.1 35.9 60 23.6 1.0 5.0 SE 0.00 29.899
12/06/2005 1:20 p 35.9 35.9 35.9 36.0 35.7 60 23.4 1.0 6.0 SE 0.00 29.901
12/06/2005 1:30 p 35.5 35.5 35.5 35.7 35.2 60 23.0 1.0 4.0 S 0.00 29.904
12/06/2005 1:40 p 35.3 35.3 35.3 35.5 35.2 59 22.4 1.0 5.0 SE 0.00 29.901
12/06/2005 1:50 p 35.6 35.6 35.6 35.8 35.5 59 22.7 1.0 6.0 SSW 0.00 29.905
12/06/2005 2:00 p 36.1 36.1 36.1 36.3 35.8 57 22.4 1.0 5.0 SE 0.00 29.912
12/06/2005 2:10 p 36.4 36.4 36.4 36.5 36.3 56 22.2 1.0 3.0 SSE 0.00 29.915
12/06/2005 2:20 p 36.2 36.2 36.2 36.4 36.0 54 21.2 2.0 6.0 SE 0.00 29.916
12/06/2005 2:30 p 35.9 35.9 35.9 36.0 35.8 54 20.9 1.0 5.0 SE 0.00 29.920
12/06/2005 2:40 p 35.8 35.8 35.8 35.8 35.7 55 21.2 1.0 5.0 SE 0.00 29.924
12/06/2005 2:50 p 35.7 35.7 35.7 35.8 35.7 56 21.6 1.0 5.0 SE 0.00 29.925
12/06/2005 3:00 p 35.8 35.8 35.8 35.9 35.7 59 22.9 0.0 3.0 SE 0.00 29.930
12/06/2005 3:10 p 35.9 35.9 35.9 35.9 35.9 58 22.6 1.0 5.0 SE 0.00 29.929
12/06/2005 3:20 p 35.8 35.8 35.8 35.9 35.7 56 21.7 1.0 5.0 SE 0.00 29.930
12/06/2005 3:30 p 35.6 35.6 35.6 35.7 35.6 58 22.3 0.0 3.0 SE 0.00 29.938
12/06/2005 3:40 p 35.8 35.8 35.8 35.9 35.7 57 22.1 1.0 4.0 SE 0.00 29.947
12/06/2005 3:50 p 35.8 35.8 35.8 35.9 35.7 57 22.1 1.0 4.0 SE 0.00 29.947
12/06/2005 4:00 p 35.4 35.4 35.4 35.7 35.2 55 20.9 1.0 5.0 SE 0.00 29.955
12/06/2005 4:10 p 35.0 35.0 35.0 35.2 34.7 56 20.9 1.0 4.0 SSE 0.00 29.958
12/06/2005 4:20 p 34.6 34.6 34.6 34.8 34.5 53 19.2 1.0 6.0 SE 0.00 29.962
12/06/2005 4:30 p 34.4 34.4 34.4 34.5 34.3 54 19.5 1.0 5.0 ESE 0.00 29.969
12/06/2005 4:40 p 34.1 34.1 34.1 34.3 33.9 55 19.6 0.0 3.0 SSE 0.00 29.975
12/06/2005 4:50 p 33.7 33.7 33.7 33.9 33.5 56 19.7 1.0 3.0 SSE 0.00 29.978
12/06/2005 5:00 p 33.3 33.3 33.3 33.5 33.2 58 20.1 0.0 2.0 SSE 0.00 29.977
12/06/2005 5:10 p